Home > Products > Valid Products > OSO

000
SXUS55 KMSO 231903
OSOMSO
MONTANA AWOS SUMMARY
NATIONAL WEATHER SERVICE MISSOULA MT
103 PM MDT SUN NOV 23 2014

Montana AWOS Reports

LAUREL      |K6S8 231855Z AUTO 26016KT 40SM 05/M11 A2990 RMK AO1 T00501105
TWIN BRIDGES|K7S1 231855Z AUTO 00000KT 40SM 02/M11 A3003 RMK AO1 T00171105
SCOBEY      |K9S2 231855Z AUTO 32020G26KT 40SM M06/M12 A2977 RMK AO1 T10551116






000
SXUS55 KMSO 231853
OSOMSO
MONTANA AWOS SUMMARY
NATIONAL WEATHER SERVICE MISSOULA MT
1253 PM MDT SUN NOV 23 2014

Montana AWOS Reports

LAUREL      |K6S8 231835Z AUTO 26012G18KT 40SM 04/M10 A2990 RMK AO1 T00441099






000
SXUS55 KMSO 231834
OSOMSO
MONTANA AWOS SUMMARY
NATIONAL WEATHER SERVICE MISSOULA MT
1233 PM MDT SUN NOV 23 2014

Montana AWOS Reports

LAUREL      |K6S8 231815Z AUTO 26012G17KT 40SM 06/M08 A2991 RMK AO1 T00611082






000
SXUS55 KMSO 231803
OSOMSO
MONTANA AWOS SUMMARY
NATIONAL WEATHER SERVICE MISSOULA MT
1202 PM MDT SUN NOV 23 2014

Montana AWOS Reports

LAUREL      |K6S8 231755Z AUTO 26013G17KT 40SM 05/M08 A2991 RMK AO1 T00501077
SCOBEY      |K9S2 231755Z AUTO 31021G29KT 40SM M06/M12 A2975 RMK AO1 T10551121
TWIN BRIDGES|K7S1 231755Z AUTO 00000KT 40SM M01/M08 A3004 RMK AO1 T10051082
MALTA       |KM75 231755Z AUTO 27008KT 40SM 01/M07 A2983 RMK AO1 T00061066






000
SXUS55 KMSO 231753
OSOMSO
MONTANA AWOS SUMMARY
NATIONAL WEATHER SERVICE MISSOULA MT
1152 AM MDT SUN NOV 23 2014

Montana AWOS Reports

LAUREL      |K6S8 231735Z AUTO 25012G19KT 40SM 04/M07 A2991 RMK AO1 T00391071






000
SXUS55 KMSO 231733
OSOMSO
MONTANA AWOS SUMMARY
NATIONAL WEATHER SERVICE MISSOULA MT
1132 AM MDT SUN NOV 23 2014

Montana AWOS Reports

LAUREL      |K6S8 231715Z AUTO 25017G22KT 40SM 04/M07 A2991 RMK AO1 T00441071






000
SXUS55 KMSO 231704
OSOMSO
MONTANA AWOS SUMMARY
NATIONAL WEATHER SERVICE MISSOULA MT
1103 AM MDT SUN NOV 23 2014

Montana AWOS Reports

LAUREL      |K6S8 231655Z AUTO 26016G22KT 40SM 04/M07 A2991 RMK AO1 T00441071
TWIN BRIDGES|K7S1 231655Z AUTO 13004KT 40SM M01/M08 A3003 RMK AO1 T10051082
SCOBEY      |K9S2 231655Z AUTO 32022G28KT 40SM M07/M13 A2974 RMK AO1 T10661127
MALTA       |KM75 231655Z AUTO 27013KT 40SM M02/M07 A2982 RMK AO1 T10161071






000
SXUS55 KMSO 231653
OSOMSO
MONTANA AWOS SUMMARY
NATIONAL WEATHER SERVICE MISSOULA MT
1052 AM MDT SUN NOV 23 2014

Montana AWOS Reports

LAUREL      |K6S8 231635Z AUTO 27012G22KT 40SM 04/M08 A2990 RMK AO1 T00391077






000
SXUS55 KMSO 231623
OSOMSO
MONTANA AWOS SUMMARY
NATIONAL WEATHER SERVICE MISSOULA MT
1022 AM MDT SUN NOV 23 2014

Montana AWOS Reports

LAUREL      |K6S8 231615Z AUTO 27009G14KT 40SM 03/M07 A2990 RMK AO1 T00331071






000
SXUS55 KMSO 231604
OSOMSO
MONTANA AWOS SUMMARY
NATIONAL WEATHER SERVICE MISSOULA MT
1003 AM MDT SUN NOV 23 2014

Montana AWOS Reports

LAUREL      |K6S8 231555Z AUTO 28006KT 40SM 02/M08 A2989 RMK AO1 T00221077
SCOBEY      |K9S2 231555Z AUTO 30020G30KT 25SM M08/M13 A2971 RMK AO1 T10771132
MALTA       |KM75 231555Z AUTO 29010G21KT 40SM M03/M08 A2980 RMK AO1 T10271082
TWIN BRIDGES|K7S1 231555Z AUTO 10004KT 40SM M02/M09 A3002 RMK AO1 T10211088






000
SXUS55 KMSO 231604
OSOMSO
MONTANA AWOS SUMMARY
NATIONAL WEATHER SERVICE MISSOULA MT
1003 AM MDT SUN NOV 23 2014

Montana AWOS Reports

LAUREL      |K6S8 231555Z AUTO 28006KT 40SM 02/M08 A2989 RMK AO1 T00221077
SCOBEY      |K9S2 231555Z AUTO 30020G30KT 25SM M08/M13 A2971 RMK AO1 T10771132
MALTA       |KM75 231555Z AUTO 29010G21KT 40SM M03/M08 A2980 RMK AO1 T10271082
TWIN BRIDGES|K7S1 231555Z AUTO 10004KT 40SM M02/M09 A3002 RMK AO1 T10211088






000
SXUS55 KMSO 231543
OSOMSO
MONTANA AWOS SUMMARY
NATIONAL WEATHER SERVICE MISSOULA MT
943 AM MDT SUN NOV 23 2014

Montana AWOS Reports

LAUREL      |K6S8 231535Z AUTO 28009KT 40SM 02/M08 A2989 RMK AO1 T00171077






000
SXUS55 KMSO 231533
OSOMSO
MONTANA AWOS SUMMARY
NATIONAL WEATHER SERVICE MISSOULA MT
932 AM MDT SUN NOV 23 2014

Montana AWOS Reports

LAUREL      |K6S8 231515Z AUTO 27007KT 40SM 01/M08 A2988 RMK AO1 T00111077






000
SXUS55 KMSO 231504
OSOMSO
MONTANA AWOS SUMMARY
NATIONAL WEATHER SERVICE MISSOULA MT
903 AM MDT SUN NOV 23 2014

Montana AWOS Reports

LAUREL      |K6S8 231455Z AUTO 26011KT 40SM 01/M08 A2987 RMK AO1 T00111077
SCOBEY      |K9S2 231455Z AUTO 30022G27KT 10SM M08/M13 A2968 RMK AO1 T10771127
MALTA       |KM75 231455Z AUTO 29021G26KT 40SM M02/M09 A2978 RMK AO1 T10211088
TWIN BRIDGES|K7S1 231455Z AUTO 07004KT 40SM M04/M10 A3000 RMK AO1 T10431099






000
SXUS55 KMSO 231443
OSOMSO
MONTANA AWOS SUMMARY
NATIONAL WEATHER SERVICE MISSOULA MT
843 AM MDT SUN NOV 23 2014

Montana AWOS Reports

LAUREL      |K6S8 231435Z AUTO 26011G17KT 40SM 02/M08 A2986 RMK AO1 T00171082






000
SXUS55 KMSO 231423
OSOMSO
MONTANA AWOS SUMMARY
NATIONAL WEATHER SERVICE MISSOULA MT
823 AM MDT SUN NOV 23 2014

Montana AWOS Reports

LAUREL      |K6S8 231415Z AUTO 25010G16KT 40SM 02/M09 A2985 RMK AO1 T00171088






000
SXUS55 KMSO 231413
OSOMSO
MONTANA AWOS SUMMARY
NATIONAL WEATHER SERVICE MISSOULA MT
813 AM MDT SUN NOV 23 2014

Montana AWOS Reports

MALTA       |KM75 231355Z AUTO 28016G20KT 40SM M02/M07 A2975 RMK AO1 T10161071
PLAINS      |KS34 231355Z AUTO 00000KT 40SM 03/M04 A3007 RMK AO1 T00331043






000
SXUS55 KMSO 231403
OSOMSO
MONTANA AWOS SUMMARY
NATIONAL WEATHER SERVICE MISSOULA MT
803 AM MDT SUN NOV 23 2014

Montana AWOS Reports

LAUREL      |K6S8 231355Z AUTO 25011G15KT 40SM 02/M09 A2985 RMK AO1 T00171088
SCOBEY      |K9S2 231355Z AUTO 30020G25KT 25SM M07/M13 A2965 RMK AO1 T10711127
TWIN BRIDGES|K7S1 231355Z AUTO 00000KT 40SM M04/M09 A2997 RMK AO1 T10431088






000
SXUS55 KMSO 231343
OSOMSO
MONTANA AWOS SUMMARY
NATIONAL WEATHER SERVICE MISSOULA MT
743 AM MDT SUN NOV 23 2014

Montana AWOS Reports

LAUREL      |K6S8 231335Z AUTO 25012G16KT 40SM 02/M09 A2984 RMK AO1 T00221088






000
SXUS55 KMSO 231333
OSOMSO
MONTANA AWOS SUMMARY
NATIONAL WEATHER SERVICE MISSOULA MT
733 AM MDT SUN NOV 23 2014

Montana AWOS Reports

LAUREL      |K6S8 231315Z AUTO 25010G17KT 40SM 02/M09 A2983 RMK AO1 T00171088
MALTA       |KM75 231055Z AUTO 27014G22KT 40SM 00/M06 A2964 RMK AO1 T00001055
MALTA       |KM75 231155Z AUTO 29019G27KT 40SM 00/M06 A2969 RMK AO1 T00001055
MALTA       |KM75 231255Z AUTO 28020G25KT 40SM M02/M07 A2972 RMK AO1 T10161071






000
SXUS55 KMSO 231304
OSOMSO
MONTANA AWOS SUMMARY
NATIONAL WEATHER SERVICE MISSOULA MT
703 AM MDT SUN NOV 23 2014

Montana AWOS Reports

LAUREL      |K6S8 231255Z AUTO 25011G20KT 40SM 02/M09 A2981 RMK AO1 T00171088
SCOBEY      |K9S2 231255Z AUTO 30021G28KT 4SM M07/M12 A2960 RMK AO1 T10711116
MALTA       |KM75 230955Z AUTO 26013G19KT 40SM 01/M04 A2961 RMK AO1 T00061038
PLAINS      |KS34 231255Z AUTO 00000KT 40SM 04/M04 A3006 RMK AO1 T00391043
TWIN BRIDGES|K7S1 231255Z AUTO 00000KT 40SM M04/M09 A2995 RMK AO1 T10381093






000
SXUS55 KMSO 231243
OSOMSO
MONTANA AWOS SUMMARY
NATIONAL WEATHER SERVICE MISSOULA MT
643 AM MDT SUN NOV 23 2014

Montana AWOS Reports

LAUREL      |K6S8 231235Z AUTO 25011G16KT 40SM 02/M09 A2981 RMK AO1 T00171088






000
SXUS55 KMSO 231223
OSOMSO
MONTANA AWOS SUMMARY
NATIONAL WEATHER SERVICE MISSOULA MT
623 AM MDT SUN NOV 23 2014

Montana AWOS Reports

LAUREL      |K6S8 231215Z AUTO 25014G19KT 40SM 02/M08 A2980 RMK AO1 T00221082






000
SXUS55 KMSO 231214
OSOMSO
MONTANA AWOS SUMMARY
NATIONAL WEATHER SERVICE MISSOULA MT
613 AM MDT SUN NOV 23 2014

Montana AWOS Reports

SCOBEY      |K9S2 231155Z AUTO 30018G25KT 25SM M07/M12 A2956 RMK AO1 T10661116






000
SXUS55 KMSO 231144
OSOMSO
MONTANA AWOS SUMMARY
NATIONAL WEATHER SERVICE MISSOULA MT
543 AM MDT SUN NOV 23 2014

Montana AWOS Reports

LAUREL      |K6S8 231135Z AUTO 26014G19KT 40SM 02/M09 A2978 RMK AO1 T00221088






000
SXUS55 KMSO 231133
OSOMSO
MONTANA AWOS SUMMARY
NATIONAL WEATHER SERVICE MISSOULA MT
533 AM MDT SUN NOV 23 2014

Montana AWOS Reports

SCOBEY      |K9S2 231055Z AUTO 29025G33KT 25SM M06/M12 A2952 RMK AO1 T10601116






000
SXUS55 KMSO 231123
OSOMSO
MONTANA AWOS SUMMARY
NATIONAL WEATHER SERVICE MISSOULA MT
523 AM MDT SUN NOV 23 2014

Montana AWOS Reports

LAUREL      |K6S8 231115Z AUTO 26011G16KT 40SM 02/M09 A2978 RMK AO1 T00221088






000
SXUS55 KMSO 231103
OSOMSO
MONTANA AWOS SUMMARY
NATIONAL WEATHER SERVICE MISSOULA MT
503 AM MDT SUN NOV 23 2014

Montana AWOS Reports

PLAINS      |KS34 231055Z AUTO 00000KT 40SM 03/M04 A3001 RMK AO1 T00331043
LAUREL      |K6S8 231055Z AUTO 25009G15KT 40SM 03/M09 A2978 RMK AO1 T00281093
TWIN BRIDGES|K7S1 231055Z AUTO 00000KT 40SM M04/M08 A2991 RMK AO1 T10381082






000
SXUS55 KMSO 231053
OSOMSO
MONTANA AWOS SUMMARY
NATIONAL WEATHER SERVICE MISSOULA MT
453 AM MDT SUN NOV 23 2014

Montana AWOS Reports

LAUREL      |K6S8 231035Z AUTO 26011KT 40SM 03/M10 A2976 RMK AO1 T00281099






000
SXUS55 KMSO 231023
OSOMSO
MONTANA AWOS SUMMARY
NATIONAL WEATHER SERVICE MISSOULA MT
423 AM MDT SUN NOV 23 2014

Montana AWOS Reports

LAUREL      |K6S8 231015Z AUTO 26010G16KT 40SM 03/M10 A2975 RMK AO1 T00281099






000
SXUS55 KMSO 231014
OSOMSO
MONTANA AWOS SUMMARY
NATIONAL WEATHER SERVICE MISSOULA MT
413 AM MDT SUN NOV 23 2014

Montana AWOS Reports

TWIN BRIDGES|K7S1 230955Z AUTO 08004KT 40SM M03/M08 A2989 RMK AO1 T10321082
SCOBEY      |K9S2 230955Z AUTO 30024G32KT 40SM M05/M11 A2948 RMK AO1 T10491110
PLAINS      |KS34 230955Z AUTO 00000KT 40SM 03/M03 A2998 RMK AO1 T00281027






000
SXUS55 KMSO 230953
OSOMSO
MONTANA AWOS SUMMARY
NATIONAL WEATHER SERVICE MISSOULA MT
352 AM MDT SUN NOV 23 2014

Montana AWOS Reports

LAUREL      |K6S8 230935Z AUTO 27010G16KT 40SM 03/M11 A2974 RMK AO1 T00331105






000
SXUS55 KMSO 230953
OSOMSO
MONTANA AWOS SUMMARY
NATIONAL WEATHER SERVICE MISSOULA MT
352 AM MDT SUN NOV 23 2014

Montana AWOS Reports

LAUREL      |K6S8 230935Z AUTO 27010G16KT 40SM 03/M11 A2974 RMK AO1 T00331105






000
SXUS55 KMSO 230923
OSOMSO
MONTANA AWOS SUMMARY
NATIONAL WEATHER SERVICE MISSOULA MT
323 AM MDT SUN NOV 23 2014

Montana AWOS Reports

LAUREL      |K6S8 230915Z AUTO 27009G16KT 40SM 03/M11 A2973 RMK AO1 T00331105






000
SXUS55 KMSO 230913
OSOMSO
MONTANA AWOS SUMMARY
NATIONAL WEATHER SERVICE MISSOULA MT
313 AM MDT SUN NOV 23 2014

Montana AWOS Reports

MALTA       |KM75 230855Z AUTO 26016G22KT 40SM 01/M04 A2957 RMK AO1 T00111043






000
SXUS55 KMSO 230903
OSOMSO
MONTANA AWOS SUMMARY
NATIONAL WEATHER SERVICE MISSOULA MT
302 AM MDT SUN NOV 23 2014

Montana AWOS Reports

SCOBEY      |K9S2 230855Z AUTO 29021G32KT 40SM M03/M09 A2944 RMK AO1 T10321088
PLAINS      |KS34 230855Z AUTO 00000KT 40SM 03/M03 A2994 RMK AO1 T00281027
LAUREL      |K6S8 230855Z AUTO 25013G21KT 40SM 04/M11 A2972 RMK AO1 T00391105






000
SXUS55 KMSO 230823
OSOMSO
MONTANA AWOS SUMMARY
NATIONAL WEATHER SERVICE MISSOULA MT
223 AM MDT SUN NOV 23 2014

Montana AWOS Reports

LAUREL      |K6S8 230815Z AUTO 25018G23KT 40SM 04/M10 A2970 RMK AO1 T00441099






000
SXUS55 KMSO 230804
OSOMSO
MONTANA AWOS SUMMARY
NATIONAL WEATHER SERVICE MISSOULA MT
203 AM MDT SUN NOV 23 2014

Montana AWOS Reports

LAUREL      |K6S8 230755Z AUTO 26018G27KT 40SM 04/M11 A2968 RMK AO1 T00441105
SCOBEY      |K9S2 230755Z AUTO 28029G36KT 40SM M01/M07 A2939 RMK AO1 T10101071
MALTA       |KM75 230755Z AUTO 26020G28KT 40SM 02/M03 A2954 RMK AO1 T00221027
TWIN BRIDGES|K7S1 230755Z AUTO 09004KT 40SM M02/M07 A2984 RMK AO1 T10161071






000
SXUS55 KMSO 230743
OSOMSO
MONTANA AWOS SUMMARY
NATIONAL WEATHER SERVICE MISSOULA MT
143 AM MDT SUN NOV 23 2014

Montana AWOS Reports

LAUREL      |K6S8 230735Z AUTO 25015G24KT 40SM 04/M11 A2968 RMK AO1 T00441105






000
SXUS55 KMSO 230724
OSOMSO
MONTANA AWOS SUMMARY
NATIONAL WEATHER SERVICE MISSOULA MT
123 AM MDT SUN NOV 23 2014

Montana AWOS Reports

LAUREL      |K6S8 230715Z AUTO 26017G25KT 40SM 04/M10 A2967 RMK AO1 T00441099






000
SXUS55 KMSO 230713
OSOMSO
MONTANA AWOS SUMMARY
NATIONAL WEATHER SERVICE MISSOULA MT
113 AM MDT SUN NOV 23 2014

Montana AWOS Reports

MALTA       |KM75 230655Z AUTO 26022G29KT 40SM 03/M02 A2949 RMK AO1 T00281016






000
SXUS55 KMSO 230703
OSOMSO
MONTANA AWOS SUMMARY
NATIONAL WEATHER SERVICE MISSOULA MT
103 AM MDT SUN NOV 23 2014

Montana AWOS Reports

SCOBEY      |K9S2 230655Z AUTO 28025G31KT 40SM 01/M04 A2935 RMK AO1 T00111043






000
SXUS55 KMSO 230643
OSOMSO
MONTANA AWOS SUMMARY
NATIONAL WEATHER SERVICE MISSOULA MT
1243 AM MDT SUN NOV 23 2014

Montana AWOS Reports

LAUREL      |K6S8 230635Z AUTO 00000KT 40SM 01/M11 A2966 RMK AO1 T00111105






000
SXUS55 KMSO 230624
OSOMSO
MONTANA AWOS SUMMARY
NATIONAL WEATHER SERVICE MISSOULA MT
1223 AM MDT SUN NOV 23 2014

Montana AWOS Reports

LAUREL      |K6S8 230615Z AUTO 00000KT 40SM 02/M11 A2966 RMK AO1 T00171110






000
SXUS55 KMSO 230613
OSOMSO
MONTANA AWOS SUMMARY
NATIONAL WEATHER SERVICE MISSOULA MT
1213 AM MDT SUN NOV 23 2014

Montana AWOS Reports

PLAINS      |KS34 230555Z AUTO 00000KT 40SM 02/M03 A2986 RMK AO1 T00221027
SCOBEY      |K9S2 230555Z AUTO 27018G27KT 40SM 02/M02 A2931 RMK AO1 T00221021






000
SXUS55 KMSO 230553
OSOMSO
MONTANA AWOS SUMMARY
NATIONAL WEATHER SERVICE MISSOULA MT
1153 PM MDT SAT NOV 22 2014

Montana AWOS Reports

LAUREL      |K6S8 230535Z AUTO 00000KT 40SM 02/M11 A2964 RMK AO1 T00221110






000
SXUS55 KMSO 230534
OSOMSO
MONTANA AWOS SUMMARY
NATIONAL WEATHER SERVICE MISSOULA MT
1133 PM MDT SAT NOV 22 2014

Montana AWOS Reports

MALTA       |KM75 230455Z AUTO 25019G28KT 40SM 03/M02 A2942 RMK AO1 T00281016






000
SXUS55 KMSO 230523
OSOMSO
MONTANA AWOS SUMMARY
NATIONAL WEATHER SERVICE MISSOULA MT
1123 PM MDT SAT NOV 22 2014

Montana AWOS Reports

LAUREL      |K6S8 230515Z AUTO 27005KT 40SM 03/M11 A2963 RMK AO1 T00281110






000
SXUS55 KMSO 230513
OSOMSO
MONTANA AWOS SUMMARY
NATIONAL WEATHER SERVICE MISSOULA MT
1113 PM MDT SAT NOV 22 2014

Montana AWOS Reports

SCOBEY      |K9S2 230455Z AUTO 26021G27KT 15SM 03/M01 A2928 RMK AO1 T00281010






000
SXUS55 KMSO 230503
OSOMSO
MONTANA AWOS SUMMARY
NATIONAL WEATHER SERVICE MISSOULA MT
1103 PM MDT SAT NOV 22 2014

Montana AWOS Reports

LAUREL      |K6S8 230455Z AUTO 29007KT 40SM 03/M11 A2962 RMK AO1 T00331110
TWIN BRIDGES|K7S1 230455Z AUTO 00000KT 40SM M01/M09 A2976 RMK AO1 T10051088






000
SXUS55 KMSO 230443
OSOMSO
MONTANA AWOS SUMMARY
NATIONAL WEATHER SERVICE MISSOULA MT
1042 PM MDT SAT NOV 22 2014

Montana AWOS Reports

LAUREL      |K6S8 230435Z AUTO 27008KT 40SM 04/M11 A2961 RMK AO1 T00391105






000
SXUS55 KMSO 230443
OSOMSO
MONTANA AWOS SUMMARY
NATIONAL WEATHER SERVICE MISSOULA MT
1042 PM MDT SAT NOV 22 2014

Montana AWOS Reports

LAUREL      |K6S8 230435Z AUTO 27008KT 40SM 04/M11 A2961 RMK AO1 T00391105






000
SXUS55 KMSO 230423
OSOMSO
MONTANA AWOS SUMMARY
NATIONAL WEATHER SERVICE MISSOULA MT
1023 PM MDT SAT NOV 22 2014

Montana AWOS Reports

LAUREL      |K6S8 230415Z AUTO 27005KT 40SM 04/M11 A2960 RMK AO1 T00441105






000
SXUS55 KMSO 230413
OSOMSO
MONTANA AWOS SUMMARY
NATIONAL WEATHER SERVICE MISSOULA MT
1012 PM MDT SAT NOV 22 2014

Montana AWOS Reports

SCOBEY      |K9S2 230355Z AUTO 25023G31KT 40SM 03/M02 A2926 RMK AO1 T00331021






000
SXUS55 KMSO 230403
OSOMSO
MONTANA AWOS SUMMARY
NATIONAL WEATHER SERVICE MISSOULA MT
1003 PM MDT SAT NOV 22 2014

Montana AWOS Reports

LAUREL      |K6S8 230355Z AUTO 26016G25KT 40SM 05/M11 A2959 RMK AO1 T00501105
TWIN BRIDGES|K7S1 230355Z AUTO 10005KT 40SM M01/M08 A2975 RMK AO1 T10101077






000
SXUS55 KMSO 230403
OSOMSO
MONTANA AWOS SUMMARY
NATIONAL WEATHER SERVICE MISSOULA MT
1003 PM MDT SAT NOV 22 2014

Montana AWOS Reports

LAUREL      |K6S8 230355Z AUTO 26016G25KT 40SM 05/M11 A2959 RMK AO1 T00501105
TWIN BRIDGES|K7S1 230355Z AUTO 10005KT 40SM M01/M08 A2975 RMK AO1 T10101077






000
SXUS55 KMSO 230343
OSOMSO
MONTANA AWOS SUMMARY
NATIONAL WEATHER SERVICE MISSOULA MT
942 PM MDT SAT NOV 22 2014

Montana AWOS Reports

LAUREL      |K6S8 230335Z AUTO 26017G23KT 40SM 05/M11 A2958 RMK AO1 T00501110






000
SXUS55 KMSO 230323
OSOMSO
MONTANA AWOS SUMMARY
NATIONAL WEATHER SERVICE MISSOULA MT
923 PM MDT SAT NOV 22 2014

Montana AWOS Reports

LAUREL      |K6S8 230315Z AUTO 25016G26KT 40SM 05/M11 A2957 RMK AO1 T00501105






000
SXUS55 KMSO 230303
OSOMSO
MONTANA AWOS SUMMARY
NATIONAL WEATHER SERVICE MISSOULA MT
902 PM MDT SAT NOV 22 2014

Montana AWOS Reports

LAUREL      |K6S8 230255Z AUTO 25014G21KT 40SM 05/M10 A2957 RMK AO1 T00501099
SCOBEY      |K9S2 230255Z AUTO 24019G25KT 40SM 03/M03 A2925 RMK AO1 T00331032
TWIN BRIDGES|K7S1 230255Z AUTO 00000KT 40SM M01/M08 A2972 RMK AO1 T10101082






000
SXUS55 KMSO 230253
OSOMSO
MONTANA AWOS SUMMARY
NATIONAL WEATHER SERVICE MISSOULA MT
852 PM MDT SAT NOV 22 2014

Montana AWOS Reports

LAUREL      |K6S8 230235Z AUTO 25012G20KT 40SM 05/M10 A2956 RMK AO1 T00501099






000
SXUS55 KMSO 230223
OSOMSO
MONTANA AWOS SUMMARY
NATIONAL WEATHER SERVICE MISSOULA MT
823 PM MDT SAT NOV 22 2014

Montana AWOS Reports

LAUREL      |K6S8 230215Z AUTO 25011G19KT 40SM 05/M09 A2956 RMK AO1 T00501088






000
SXUS55 KMSO 230203
OSOMSO
MONTANA AWOS SUMMARY
NATIONAL WEATHER SERVICE MISSOULA MT
803 PM MDT SAT NOV 22 2014

Montana AWOS Reports

LAUREL      |K6S8 230155Z AUTO 40SM 04/M09 A2956 RMK AO1 T00441093
SCOBEY      |K9S2 230155Z AUTO 24018G25KT 40SM 04/M04 A2924 RMK AO1 T00391043
PLAINS      |KS34 230155Z AUTO 31006KT 40SM 04/M03 A2976 RMK AO1 T00391032
TWIN BRIDGES|K7S1 230155Z AUTO 08004KT 40SM M01/M08 A2972 RMK AO1 T10101077
MALTA       |KM75 230155Z AUTO 23019G30KT 40SM 04/M01 A2935 RMK AO1 T00391010






000
SXUS55 KMSO 230143
OSOMSO
MONTANA AWOS SUMMARY
NATIONAL WEATHER SERVICE MISSOULA MT
743 PM MDT SAT NOV 22 2014

Montana AWOS Reports

LAUREL      |K6S8 230135Z AUTO 24011G15KT 40SM 05/M09 A2956 RMK AO1 T00501088






000
SXUS55 KMSO 230123
OSOMSO
MONTANA AWOS SUMMARY
NATIONAL WEATHER SERVICE MISSOULA MT
723 PM MDT SAT NOV 22 2014

Montana AWOS Reports

LAUREL      |K6S8 230115Z AUTO 25010G16KT 40SM 06/M09 A2955 RMK AO1 T00561093






000
SXUS55 KMSO 230113
OSOMSO
MONTANA AWOS SUMMARY
NATIONAL WEATHER SERVICE MISSOULA MT
713 PM MDT SAT NOV 22 2014

Montana AWOS Reports

MALTA       |KM75 230055Z AUTO 25020G30KT 40SM 05/M02 A2932 RMK AO1 T00501021






000
SXUS55 KMSO 230103
OSOMSO
MONTANA AWOS SUMMARY
NATIONAL WEATHER SERVICE MISSOULA MT
703 PM MDT SAT NOV 22 2014

Montana AWOS Reports

LAUREL      |K6S8 230055Z AUTO 24010G18KT 40SM 06/M09 A2954 RMK AO1 T00561093






000
SXUS55 KMSO 230044
OSOMSO
MONTANA AWOS SUMMARY
NATIONAL WEATHER SERVICE MISSOULA MT
643 PM MDT SAT NOV 22 2014

Montana AWOS Reports

LAUREL      |K6S8 230035Z AUTO 40SM 06/M09 A2953 RMK AO1 T00611093






000
SXUS55 KMSO 230033
OSOMSO
MONTANA AWOS SUMMARY
NATIONAL WEATHER SERVICE MISSOULA MT
633 PM MDT SAT NOV 22 2014

Montana AWOS Reports

MALTA       |KM75 222355Z AUTO 23011G16KT 40SM 05/M03 A2930 RMK AO1 T00501032






000
SXUS55 KMSO 230023
OSOMSO
MONTANA AWOS SUMMARY
NATIONAL WEATHER SERVICE MISSOULA MT
623 PM MDT SAT NOV 22 2014

Montana AWOS Reports

LAUREL      |K6S8 230015Z AUTO 24014G27KT 40SM 06/M08 A2951 RMK AO1 T00611082






000
SXUS55 KMSO 230004
OSOMSO
MONTANA AWOS SUMMARY
NATIONAL WEATHER SERVICE MISSOULA MT
603 PM MDT SAT NOV 22 2014

Montana AWOS Reports

LAUREL      |K6S8 222355Z AUTO 24016G33KT 40SM 07/M07 A2950 RMK AO1 T00671071
TWIN BRIDGES|K7S1 222355Z AUTO 21007KT 40SM 02/M08 A2967 RMK AO1 T00221077
PLAINS      |KS34 222355Z AUTO 25004KT 40SM 06/M04 A2973 RMK AO1 T00561038
SCOBEY      |K9S2 222355Z AUTO 24005KT 40SM 03/M04 A2925 RMK AO1 T00281038






000
SXUS55 KMSO 222343
OSOMSO
MONTANA AWOS SUMMARY
NATIONAL WEATHER SERVICE MISSOULA MT
543 PM MDT SAT NOV 22 2014

Montana AWOS Reports

LAUREL      |K6S8 222335Z AUTO 40SM 07/M07 A2949 RMK AO1 T00671066






000
SXUS55 KMSO 222323
OSOMSO
MONTANA AWOS SUMMARY
NATIONAL WEATHER SERVICE MISSOULA MT
523 PM MDT SAT NOV 22 2014

Montana AWOS Reports

LAUREL      |K6S8 222315Z AUTO 25018G31KT 40SM 07/M06 A2949 RMK AO1 T00721055






000
SXUS55 KMSO 222313
OSOMSO
MONTANA AWOS SUMMARY
NATIONAL WEATHER SERVICE MISSOULA MT
513 PM MDT SAT NOV 22 2014

Montana AWOS Reports

MALTA       |KM75 222255Z AUTO 40SM 06/M03 A2928 RMK AO1 T00611027






000
SXUS55 KMSO 222303
OSOMSO
MONTANA AWOS SUMMARY
NATIONAL WEATHER SERVICE MISSOULA MT
503 PM MDT SAT NOV 22 2014

Montana AWOS Reports

SCOBEY      |K9S2 222255Z AUTO 24006KT 40SM 06/M02 A2925 RMK AO1 T00611021
PLAINS      |KS34 222255Z AUTO 21004KT 25SM 06/M03 A2970 RMK AO1 T00561032
LAUREL      |K6S8 222255Z AUTO 23014G28KT 40SM 07/M04 A2948 RMK AO1 T00671043
TWIN BRIDGES|K7S1 222255Z AUTO 25007KT 40SM 04/M10 A2967 RMK AO1 T00441099






000
SXUS55 KMSO 222243
OSOMSO
MONTANA AWOS SUMMARY
NATIONAL WEATHER SERVICE MISSOULA MT
443 PM MDT SAT NOV 22 2014

Montana AWOS Reports

LAUREL      |K6S8 222235Z AUTO 22011G16KT 40SM 06/M03 A2947 RMK AO1 T00611032






000
SXUS55 KMSO 222223
OSOMSO
MONTANA AWOS SUMMARY
NATIONAL WEATHER SERVICE MISSOULA MT
422 PM MDT SAT NOV 22 2014

Montana AWOS Reports

LAUREL      |K6S8 222215Z AUTO 24011G18KT 40SM 06/M03 A2948 RMK AO1 T00561032






000
SXUS55 KMSO 222213
OSOMSO
MONTANA AWOS SUMMARY
NATIONAL WEATHER SERVICE MISSOULA MT
413 PM MDT SAT NOV 22 2014

Montana AWOS Reports

MALTA       |KM75 222155Z AUTO 25016G24KT 40SM 08/M03 A2926 RMK AO1 T00781032






000
SXUS55 KMSO 222204
OSOMSO
MONTANA AWOS SUMMARY
NATIONAL WEATHER SERVICE MISSOULA MT
403 PM MDT SAT NOV 22 2014

Montana AWOS Reports

PLAINS      |KS34 222155Z AUTO 20007KT 40SM 06/M04 A2968 RMK AO1 T00561038
LAUREL      |K6S8 222155Z AUTO 24017G35KT 25SM 06/M03 A2947 RMK AO1 T00611032
TWIN BRIDGES|K7S1 222155Z AUTO 28009KT 40SM 04/M07 A2964 RMK AO1 T00441071
SCOBEY      |K9S2 222155Z AUTO 40SM 08/M02 A2923 RMK AO1 T00831016






000
SXUS55 KMSO 222204
OSOMSO
MONTANA AWOS SUMMARY
NATIONAL WEATHER SERVICE MISSOULA MT
403 PM MDT SAT NOV 22 2014

Montana AWOS Reports

PLAINS      |KS34 222155Z AUTO 20007KT 40SM 06/M04 A2968 RMK AO1 T00561038
LAUREL      |K6S8 222155Z AUTO 24017G35KT 25SM 06/M03 A2947 RMK AO1 T00611032
TWIN BRIDGES|K7S1 222155Z AUTO 28009KT 40SM 04/M07 A2964 RMK AO1 T00441071
SCOBEY      |K9S2 222155Z AUTO 40SM 08/M02 A2923 RMK AO1 T00831016






000
SXUS55 KMSO 222143
OSOMSO
MONTANA AWOS SUMMARY
NATIONAL WEATHER SERVICE MISSOULA MT
343 PM MDT SAT NOV 22 2014

Montana AWOS Reports

LAUREL      |K6S8 222135Z AUTO 25022G33KT 10SM 07/00 A2946 RMK AO1 T00720000






000
SXUS55 KMSO 222123
OSOMSO
MONTANA AWOS SUMMARY
NATIONAL WEATHER SERVICE MISSOULA MT
322 PM MDT SAT NOV 22 2014

Montana AWOS Reports

LAUREL      |K6S8 222115Z AUTO 24011G16KT 40SM 09/M02 A2945 RMK AO1 T00891016






000
SXUS55 KMSO 222113
OSOMSO
MONTANA AWOS SUMMARY
NATIONAL WEATHER SERVICE MISSOULA MT
313 PM MDT SAT NOV 22 2014

Montana AWOS Reports

MALTA       |KM75 222055Z AUTO 25014G25KT 40SM 08/M01 A2923 RMK AO1 T00831010






000
SXUS55 KMSO 222103
OSOMSO
MONTANA AWOS SUMMARY
NATIONAL WEATHER SERVICE MISSOULA MT
303 PM MDT SAT NOV 22 2014

Montana AWOS Reports

PLAINS      |KS34 222055Z AUTO 22005KT 40SM 06/M04 A2966 RMK AO1 T00611038
LAUREL      |K6S8 222055Z AUTO 26014G19KT 40SM 09/M02 A2945 RMK AO1 T00941016
SCOBEY      |K9S2 222055Z AUTO 23017G22KT 40SM 09/M01 A2922 RMK AO1 T00941010
TWIN BRIDGES|K7S1 222055Z AUTO 00000KT 40SM 03/M03 A2963 RMK AO1 T00281032






000
SXUS55 KMSO 222043
OSOMSO
MONTANA AWOS SUMMARY
NATIONAL WEATHER SERVICE MISSOULA MT
242 PM MDT SAT NOV 22 2014

Montana AWOS Reports

LAUREL      |K6S8 222035Z AUTO 26013G20KT 40SM 11/M02 A2945 RMK AO1 T01111016






000
SXUS55 KMSO 222023
OSOMSO
MONTANA AWOS SUMMARY
NATIONAL WEATHER SERVICE MISSOULA MT
223 PM MDT SAT NOV 22 2014

Montana AWOS Reports

LAUREL      |K6S8 222015Z AUTO 22012G17KT 40SM 11/00 A2945 RMK AO1 T01110000






000
SXUS55 KMSO 222003
OSOMSO
MONTANA AWOS SUMMARY
NATIONAL WEATHER SERVICE MISSOULA MT
203 PM MDT SAT NOV 22 2014

Montana AWOS Reports

LAUREL      |K6S8 221955Z AUTO 22012G20KT 40SM 11/00 A2945 RMK AO1 T01060000
SCOBEY      |K9S2 221955Z AUTO 00000KT 40SM 06/M02 A2923 RMK AO1 T00611016
MALTA       |KM75 221955Z AUTO 24007KT 40SM 09/M01 A2923 RMK AO1 T00891005
TWIN BRIDGES|K7S1 221955Z AUTO 00000KT 40SM 03/M03 A2959 RMK AO1 T00281032






000
SXUS55 KMSO 222003
OSOMSO
MONTANA AWOS SUMMARY
NATIONAL WEATHER SERVICE MISSOULA MT
203 PM MDT SAT NOV 22 2014

Montana AWOS Reports

LAUREL      |K6S8 221955Z AUTO 22012G20KT 40SM 11/00 A2945 RMK AO1 T01060000
SCOBEY      |K9S2 221955Z AUTO 00000KT 40SM 06/M02 A2923 RMK AO1 T00611016
MALTA       |KM75 221955Z AUTO 24007KT 40SM 09/M01 A2923 RMK AO1 T00891005
TWIN BRIDGES|K7S1 221955Z AUTO 00000KT 40SM 03/M03 A2959 RMK AO1 T00281032






000
SXUS55 KMSO 221944
OSOMSO
MONTANA AWOS SUMMARY
NATIONAL WEATHER SERVICE MISSOULA MT
143 PM MDT SAT NOV 22 2014

Montana AWOS Reports

LAUREL      |K6S8 221935Z AUTO 25007KT 40SM 09/00 A2944 RMK AO1 T00940000






000
SXUS55 KMSO 221924
OSOMSO
MONTANA AWOS SUMMARY
NATIONAL WEATHER SERVICE MISSOULA MT
123 PM MDT SAT NOV 22 2014

Montana AWOS Reports

LAUREL      |K6S8 221915Z AUTO 24010G16KT 40SM 11/01 A2944 RMK AO1 T01060006






000
SXUS55 KMSO 221913
OSOMSO
MONTANA AWOS SUMMARY
NATIONAL WEATHER SERVICE MISSOULA MT
113 PM MDT SAT NOV 22 2014

Montana AWOS Reports

LAUREL      |K6S8 221855Z AUTO 23008KT 40SM 09/00 A2946 RMK AO1 T00890000
MALTA       |KM75 221855Z AUTO 23015G21KT 40SM 09/00 A2921 RMK AO1 T00890000
PLAINS      |KS34 221855Z AUTO 20008KT 40SM 07/M03 A2961 RMK AO1 T00671032
TWIN BRIDGES|K7S1 221855Z AUTO 28005KT 1 1/4SM 01/M02 A2959 RMK AO1 T00111021






000
SXUS55 KMSO 221903
OSOMSO
MONTANA AWOS SUMMARY
NATIONAL WEATHER SERVICE MISSOULA MT
102 PM MDT SAT NOV 22 2014

Montana AWOS Reports

SCOBEY      |K9S2 221855Z AUTO 15004KT 40SM 04/M03 A2924 RMK AO1 T00391027






000
SXUS55 KMSO 221843
OSOMSO
MONTANA AWOS SUMMARY
NATIONAL WEATHER SERVICE MISSOULA MT
1243 PM MDT SAT NOV 22 2014

Montana AWOS Reports

LAUREL      |K6S8 221835Z AUTO 24013G18KT 40SM 08/00 A2946 RMK AO1 T00830000






000
SXUS55 KMSO 221824
OSOMSO
MONTANA AWOS SUMMARY
NATIONAL WEATHER SERVICE MISSOULA MT
1223 PM MDT SAT NOV 22 2014

Montana AWOS Reports

LAUREL      |K6S8 221815Z AUTO 24009G22KT 40SM 09/M02 A2948 RMK AO1 T00891016






000
SXUS55 KMSO 221804
OSOMSO
MONTANA AWOS SUMMARY
NATIONAL WEATHER SERVICE MISSOULA MT
1203 PM MDT SAT NOV 22 2014

Montana AWOS Reports

LAUREL      |K6S8 221755Z AUTO 20008KT 40SM 09/M03 A2948 RMK AO1 T00891027
SCOBEY      |K9S2 221755Z AUTO 15007KT 40SM 04/M03 A2926 RMK AO1 T00391027
MALTA       |KM75 221755Z AUTO 00000KT 40SM 06/M01 A2923 RMK AO1 T00561005
TWIN BRIDGES|K7S1 221755Z AUTO 11005KT 40SM 03/M01 A2955 RMK AO1 T00331005






000
SXUS55 KMSO 221743
OSOMSO
MONTANA AWOS SUMMARY
NATIONAL WEATHER SERVICE MISSOULA MT
1143 AM MDT SAT NOV 22 2014

Montana AWOS Reports

LAUREL      |K6S8 221735Z AUTO 22012G19KT 40SM 09/M03 A2945 RMK AO1 T00941032






000
SXUS55 KMSO 221723
OSOMSO
MONTANA AWOS SUMMARY
NATIONAL WEATHER SERVICE MISSOULA MT
1123 AM MDT SAT NOV 22 2014

Montana AWOS Reports

LAUREL      |K6S8 221715Z AUTO 20013G17KT 40SM 10/M03 A2943 RMK AO1 T01001032






000
SXUS55 KMSO 221703
OSOMSO
MONTANA AWOS SUMMARY
NATIONAL WEATHER SERVICE MISSOULA MT
1103 AM MDT SAT NOV 22 2014

Montana AWOS Reports

LAUREL      |K6S8 221655Z AUTO 20010G16KT 40SM 09/M03 A2944 RMK AO1 T00941027
SCOBEY      |K9S2 221655Z AUTO 15006KT 40SM 03/M03 A2928 RMK AO1 T00331032
TWIN BRIDGES|K7S1 221655Z AUTO 17009G17KT 7SM 03/M01 A2957 RMK AO1 T00331010
MALTA       |KM75 221655Z AUTO 00000KT 40SM 03/M02 A2923 RMK AO1 T00281021






000
SXUS55 KMSO 221643
OSOMSO
MONTANA AWOS SUMMARY
NATIONAL WEATHER SERVICE MISSOULA MT
1042 AM MDT SAT NOV 22 2014

Montana AWOS Reports

LAUREL      |K6S8 221635Z AUTO 19011G18KT 40SM 09/M03 A2944 RMK AO1 T00891032






000
SXUS55 KMSO 221623
OSOMSO
MONTANA AWOS SUMMARY
NATIONAL WEATHER SERVICE MISSOULA MT
1023 AM MDT SAT NOV 22 2014

Montana AWOS Reports

LAUREL      |K6S8 221615Z AUTO 18007KT 40SM 09/M03 A2944 RMK AO1 T00891032






000
SXUS55 KMSO 221603
OSOMSO
MONTANA AWOS SUMMARY
NATIONAL WEATHER SERVICE MISSOULA MT
1003 AM MDT SAT NOV 22 2014

Montana AWOS Reports

SCOBEY      |K9S2 221555Z AUTO 13012G17KT 40SM 03/M03 A2930 RMK AO1 T00281032
MALTA       |KM75 221555Z AUTO 00000KT 40SM 04/M03 A2924 RMK AO1 T00391027
PLAINS      |KS34 221555Z AUTO 18011G22KT 40SM 06/M03 A2951 RMK AO1 T00611032
LAUREL      |K6S8 221555Z AUTO 19006KT 40SM 08/M04 A2945 RMK AO1 T00831043
TWIN BRIDGES|K7S1 221555Z AUTO 00000KT 25SM 03/M01 A2956 RMK AO1 T00331005






000
SXUS55 KMSO 221603
OSOMSO
MONTANA AWOS SUMMARY
NATIONAL WEATHER SERVICE MISSOULA MT
1003 AM MDT SAT NOV 22 2014

Montana AWOS Reports

SCOBEY      |K9S2 221555Z AUTO 13012G17KT 40SM 03/M03 A2930 RMK AO1 T00281032
MALTA       |KM75 221555Z AUTO 00000KT 40SM 04/M03 A2924 RMK AO1 T00391027
PLAINS      |KS34 221555Z AUTO 18011G22KT 40SM 06/M03 A2951 RMK AO1 T00611032
LAUREL      |K6S8 221555Z AUTO 19006KT 40SM 08/M04 A2945 RMK AO1 T00831043
TWIN BRIDGES|K7S1 221555Z AUTO 00000KT 25SM 03/M01 A2956 RMK AO1 T00331005






000
SXUS55 KMSO 221544
OSOMSO
MONTANA AWOS SUMMARY
NATIONAL WEATHER SERVICE MISSOULA MT
943 AM MDT SAT NOV 22 2014

Montana AWOS Reports

LAUREL      |K6S8 221535Z AUTO 19006KT 40SM 07/M06 A2946 RMK AO1 T00721055






000
SXUS55 KMSO 221544
OSOMSO
MONTANA AWOS SUMMARY
NATIONAL WEATHER SERVICE MISSOULA MT
943 AM MDT SAT NOV 22 2014

Montana AWOS Reports

LAUREL      |K6S8 221535Z AUTO 19006KT 40SM 07/M06 A2946 RMK AO1 T00721055






000
SXUS55 KMSO 221523
OSOMSO
MONTANA AWOS SUMMARY
NATIONAL WEATHER SERVICE MISSOULA MT
923 AM MDT SAT NOV 22 2014

Montana AWOS Reports

LAUREL      |K6S8 221515Z AUTO 21006KT 40SM 08/M05 A2946 RMK AO1 T00781049






000
SXUS55 KMSO 221514
OSOMSO
MONTANA AWOS SUMMARY
NATIONAL WEATHER SERVICE MISSOULA MT
913 AM MDT SAT NOV 22 2014

Montana AWOS Reports

PLAINS      |KS34 221455Z AUTO 21011G15KT 40SM 06/M02 A2950 RMK AO1 T00611021
TWIN BRIDGES|K7S1 221455Z AUTO 15004KT 40SM 04/M02 A2953 RMK AO1 T00441021






000
SXUS55 KMSO 221503
OSOMSO
MONTANA AWOS SUMMARY
NATIONAL WEATHER SERVICE MISSOULA MT
903 AM MDT SAT NOV 22 2014

Montana AWOS Reports

SCOBEY      |K9S2 221455Z AUTO 13013G17KT 40SM 02/M04 A2932 RMK AO1 T00221038
LAUREL      |K6S8 221455Z AUTO 20011G18KT 40SM 08/M06 A2947 RMK AO1 T00781055






000
SXUS55 KMSO 221453
OSOMSO
MONTANA AWOS SUMMARY
NATIONAL WEATHER SERVICE MISSOULA MT
852 AM MDT SAT NOV 22 2014

Montana AWOS Reports

LAUREL      |K6S8 221435Z AUTO 20008KT 40SM 07/M06 A2947 RMK AO1 T00721055






000
SXUS55 KMSO 221433
OSOMSO
MONTANA AWOS SUMMARY
NATIONAL WEATHER SERVICE MISSOULA MT
833 AM MDT SAT NOV 22 2014

Montana AWOS Reports

MALTA       |KM75 221355Z AUTO 00000KT 40SM 03/M03 A2928 RMK AO1 T00331027






000
SXUS55 KMSO 221423
OSOMSO
MONTANA AWOS SUMMARY
NATIONAL WEATHER SERVICE MISSOULA MT
822 AM MDT SAT NOV 22 2014

Montana AWOS Reports

LAUREL      |K6S8 221415Z AUTO 20006KT 40SM 07/M06 A2947 RMK AO1 T00721055






000
SXUS55 KMSO 221413
OSOMSO
MONTANA AWOS SUMMARY
NATIONAL WEATHER SERVICE MISSOULA MT
813 AM MDT SAT NOV 22 2014

Montana AWOS Reports

TWIN BRIDGES|K7S1 221355Z AUTO 14005KT 40SM 04/M02 A2954 RMK AO1 T00441021






000
SXUS55 KMSO 221403
OSOMSO
MONTANA AWOS SUMMARY
NATIONAL WEATHER SERVICE MISSOULA MT
803 AM MDT SAT NOV 22 2014

Montana AWOS Reports

SCOBEY      |K9S2 221255Z AUTO 00000KT 40SM M02/M06 A2938 RMK AO1 T10161055
PLAINS      |KS34 221355Z AUTO 22016G20KT 15SM 05/01 A2948 RMK AO1 T00500006
LAUREL      |K6S8 221355Z AUTO 21008KT 40SM 07/M05 A2946 RMK AO1 T00671049
SCOBEY      |K9S2 221355Z AUTO 15006KT 40SM M01/M05 A2936 RMK AO1 T10101049






000
SXUS55 KMSO 221353
OSOMSO
MONTANA AWOS SUMMARY
NATIONAL WEATHER SERVICE MISSOULA MT
753 AM MDT SAT NOV 22 2014

Montana AWOS Reports

MALTA       |KM75 221255Z AUTO 00000KT 40SM 03/M03 A2932 RMK AO1 T00281027






000
SXUS55 KMSO 221343
OSOMSO
MONTANA AWOS SUMMARY
NATIONAL WEATHER SERVICE MISSOULA MT
743 AM MDT SAT NOV 22 2014

Montana AWOS Reports

LAUREL      |K6S8 221335Z AUTO 19008KT 40SM 07/M05 A2946 RMK AO1 T00671049






000
SXUS55 KMSO 221323
OSOMSO
MONTANA AWOS SUMMARY
NATIONAL WEATHER SERVICE MISSOULA MT
723 AM MDT SAT NOV 22 2014

Montana AWOS Reports

LAUREL      |K6S8 221315Z AUTO 20009G13KT 40SM 07/M05 A2946 RMK AO1 T00671049






000
SXUS55 KMSO 221313
OSOMSO
MONTANA AWOS SUMMARY
NATIONAL WEATHER SERVICE MISSOULA MT
712 AM MDT SAT NOV 22 2014

Montana AWOS Reports

LAUREL      |K6S8 221255Z AUTO 22010G18KT 40SM 07/M06 A2947 RMK AO1 T00671055
PLAINS      |KS34 221255Z AUTO 00000KT 40SM 05/01 A2946 RMK AO1 T00500006
TWIN BRIDGES|K7S1 221255Z AUTO 14004KT 40SM 04/M02 A2956 RMK AO1 T00391021






000
SXUS55 KMSO 221243
OSOMSO
MONTANA AWOS SUMMARY
NATIONAL WEATHER SERVICE MISSOULA MT
643 AM MDT SAT NOV 22 2014

Montana AWOS Reports

LAUREL      |K6S8 221235Z AUTO 21011G18KT 40SM 06/M06 A2947 RMK AO1 T00611055
MALTA       |KM75 221155Z AUTO 00000KT 40SM 02/M03 A2934 RMK AO1 T00221032






000
SXUS55 KMSO 221223
OSOMSO
MONTANA AWOS SUMMARY
NATIONAL WEATHER SERVICE MISSOULA MT
623 AM MDT SAT NOV 22 2014

Montana AWOS Reports

SCOBEY      |K9S2 221155Z AUTO 00000KT 40SM M02/M05 A2941 RMK AO1 T10161049
LAUREL      |K6S8 221215Z AUTO 22010G20KT 40SM 06/M06 A2947 RMK AO1 T00561055






000
SXUS55 KMSO 221203
OSOMSO
MONTANA AWOS SUMMARY
NATIONAL WEATHER SERVICE MISSOULA MT
603 AM MDT SAT NOV 22 2014

Montana AWOS Reports

LAUREL      |K6S8 221155Z AUTO 21013G20KT 40SM 05/M06 A2948 RMK AO1 T00501055
TWIN BRIDGES|K7S1 221155Z AUTO 10010G21KT 40SM 04/M01 A2957 RMK AO1 T00391010






000
SXUS55 KMSO 221153
OSOMSO
MONTANA AWOS SUMMARY
NATIONAL WEATHER SERVICE MISSOULA MT
553 AM MDT SAT NOV 22 2014

Montana AWOS Reports

MALTA       |KM75 221055Z AUTO 00000KT 40SM 03/M03 A2937 RMK AO1 T00331027






000
SXUS55 KMSO 221143
OSOMSO
MONTANA AWOS SUMMARY
NATIONAL WEATHER SERVICE MISSOULA MT
543 AM MDT SAT NOV 22 2014

Montana AWOS Reports

LAUREL      |K6S8 221135Z AUTO 21014G20KT 40SM 05/M06 A2948 RMK AO1 T00501060






000
SXUS55 KMSO 221123
OSOMSO
MONTANA AWOS SUMMARY
NATIONAL WEATHER SERVICE MISSOULA MT
523 AM MDT SAT NOV 22 2014

Montana AWOS Reports

LAUREL      |K6S8 221115Z AUTO 21010G18KT 40SM 05/M06 A2949 RMK AO1 T00501060






000
SXUS55 KMSO 221103
OSOMSO
MONTANA AWOS SUMMARY
NATIONAL WEATHER SERVICE MISSOULA MT
503 AM MDT SAT NOV 22 2014

Montana AWOS Reports

LAUREL      |K6S8 221055Z AUTO 22014G23KT 40SM 05/M06 A2950 RMK AO1 T00501060
TWIN BRIDGES|K7S1 221055Z AUTO 17005KT 25SM 04/M02 A2964 RMK AO1 T00391016
SCOBEY      |K9S2 221055Z AUTO 00000KT 40SM M02/M06 A2945 RMK AO1 T10211060






000
SXUS55 KMSO 221053
OSOMSO
MONTANA AWOS SUMMARY
NATIONAL WEATHER SERVICE MISSOULA MT
452 AM MDT SAT NOV 22 2014

Montana AWOS Reports

MALTA       |KM75 220955Z AUTO 17007KT 40SM 04/M03 A2941 RMK AO1 T00391032






000
SXUS55 KMSO 221023
OSOMSO
MONTANA AWOS SUMMARY
NATIONAL WEATHER SERVICE MISSOULA MT
423 AM MDT SAT NOV 22 2014

Montana AWOS Reports

LAUREL      |K6S8 221015Z AUTO 23007KT 40SM 05/M06 A2953 RMK AO1 T00501060






000
SXUS55 KMSO 221013
OSOMSO
MONTANA AWOS SUMMARY
NATIONAL WEATHER SERVICE MISSOULA MT
413 AM MDT SAT NOV 22 2014

Montana AWOS Reports

LAUREL      |K6S8 220955Z AUTO 22009G13KT 40SM 05/M06 A2955 RMK AO1 T00501055
SCOBEY      |K9S2 220955Z AUTO 15004KT 40SM M02/M06 A2949 RMK AO1 T10161055
TWIN BRIDGES|K7S1 220955Z AUTO 18010KT 40SM 04/M04 A2962 RMK AO1 T00441038






000
SXUS55 KMSO 221003
OSOMSO
MONTANA AWOS SUMMARY
NATIONAL WEATHER SERVICE MISSOULA MT
402 AM MDT SAT NOV 22 2014

Montana AWOS Reports

PLAINS      |KS34 220955Z AUTO 00000KT 2SM 01/M02 A2945 RMK AO1 T00061016






000
SXUS55 KMSO 220953
OSOMSO
MONTANA AWOS SUMMARY
NATIONAL WEATHER SERVICE MISSOULA MT
352 AM MDT SAT NOV 22 2014

Montana AWOS Reports

LAUREL      |K6S8 220935Z AUTO 22006KT 40SM 04/M06 A2955 RMK AO1 T00441055






000
SXUS55 KMSO 220923
OSOMSO
MONTANA AWOS SUMMARY
NATIONAL WEATHER SERVICE MISSOULA MT
323 AM MDT SAT NOV 22 2014

Montana AWOS Reports

LAUREL      |K6S8 220915Z AUTO 22009G13KT 40SM 05/M06 A2956 RMK AO1 T00501055






000
SXUS55 KMSO 220904
OSOMSO
MONTANA AWOS SUMMARY
NATIONAL WEATHER SERVICE MISSOULA MT
303 AM MDT SAT NOV 22 2014

Montana AWOS Reports

LAUREL      |K6S8 220855Z AUTO 22009G13KT 40SM 05/M06 A2956 RMK AO1 T00501055
SCOBEY      |K9S2 220855Z AUTO 00000KT 40SM M04/M08 A2952 RMK AO1 T10381077
MALTA       |KM75 220855Z AUTO 00000KT 40SM 03/M03 A2945 RMK AO1 T00331027
TWIN BRIDGES|K7S1 220855Z AUTO 11013G21KT 40SM 06/M04 A2961 RMK AO1 T00611043






000
SXUS55 KMSO 220843
OSOMSO
MONTANA AWOS SUMMARY
NATIONAL WEATHER SERVICE MISSOULA MT
243 AM MDT SAT NOV 22 2014

Montana AWOS Reports

LAUREL      |K6S8 220835Z AUTO 23007KT 40SM 05/M06 A2958 RMK AO1 T00501055






000
SXUS55 KMSO 220833
OSOMSO
MONTANA AWOS SUMMARY
NATIONAL WEATHER SERVICE MISSOULA MT
233 AM MDT SAT NOV 22 2014

Montana AWOS Reports

MALTA       |KM75 220755Z AUTO 00000KT 40SM M01/M05 A2949 RMK AO1 T10101049






000
SXUS55 KMSO 220823
OSOMSO
MONTANA AWOS SUMMARY
NATIONAL WEATHER SERVICE MISSOULA MT
223 AM MDT SAT NOV 22 2014

Montana AWOS Reports

LAUREL      |K6S8 220815Z AUTO 22008KT 40SM 05/M06 A2959 RMK AO1 T00501060






000
SXUS55 KMSO 220814
OSOMSO
MONTANA AWOS SUMMARY
NATIONAL WEATHER SERVICE MISSOULA MT
213 AM MDT SAT NOV 22 2014

Montana AWOS Reports

LAUREL      |K6S8 220755Z AUTO 23006KT 40SM 04/M06 A2959 RMK AO1 T00391060
TWIN BRIDGES|K7S1 220755Z AUTO 10011G17KT 40SM 05/M04 A2967 RMK AO1 T00501043
SCOBEY      |K9S2 220755Z AUTO 25004KT 40SM M03/M07 A2954 RMK AO1 T10271066






000
SXUS55 KMSO 220803
OSOMSO
MONTANA AWOS SUMMARY
NATIONAL WEATHER SERVICE MISSOULA MT
203 AM MDT SAT NOV 22 2014

Montana AWOS Reports

PLAINS      |KS34 220755Z AUTO 00000KT 2 1/2SM 00/M03 A2947 RMK AO1 T00001027






000
SXUS55 KMSO 220743
OSOMSO
MONTANA AWOS SUMMARY
NATIONAL WEATHER SERVICE MISSOULA MT
143 AM MDT SAT NOV 22 2014

Montana AWOS Reports

LAUREL      |K6S8 220735Z AUTO 00000KT 40SM 03/M07 A2960 RMK AO1 T00331066






000
SXUS55 KMSO 220733
OSOMSO
MONTANA AWOS SUMMARY
NATIONAL WEATHER SERVICE MISSOULA MT
133 AM MDT SAT NOV 22 2014

Montana AWOS Reports

MALTA       |KM75 220655Z AUTO 00000KT 40SM M03/M05 A2952 RMK AO1 T10271049






000
SXUS55 KMSO 220723
OSOMSO
MONTANA AWOS SUMMARY
NATIONAL WEATHER SERVICE MISSOULA MT
123 AM MDT SAT NOV 22 2014

Montana AWOS Reports

LAUREL      |K6S8 220715Z AUTO 21005KT 40SM 03/M07 A2962 RMK AO1 T00331066
MALTA       |KM75 220715Z AUTO 00000KT 40SM M01/M04 A2951 RMK AO1 T10101038






000
SXUS55 KMSO 220713
OSOMSO
MONTANA AWOS SUMMARY
NATIONAL WEATHER SERVICE MISSOULA MT
113 AM MDT SAT NOV 22 2014

Montana AWOS Reports

TWIN BRIDGES|K7S1 220655Z AUTO 12008KT 40SM 04/M04 A2971 RMK AO1 T00391038
PLAINS      |KS34 220655Z AUTO 00000KT 2 1/2SM 00/M03 A2950 RMK AO1 T00001027






000
SXUS55 KMSO 220643
OSOMSO
MONTANA AWOS SUMMARY
NATIONAL WEATHER SERVICE MISSOULA MT
1242 AM MDT SAT NOV 22 2014

Montana AWOS Reports

LAUREL      |K6S8 220635Z AUTO 22004KT 40SM 03/M07 A2964 RMK AO1 T00331066






000
SXUS55 KMSO 220623
OSOMSO
MONTANA AWOS SUMMARY
NATIONAL WEATHER SERVICE MISSOULA MT
1223 AM MDT SAT NOV 22 2014

Montana AWOS Reports

LAUREL      |K6S8 220615Z AUTO 23005KT 40SM 03/M07 A2966 RMK AO1 T00331066






000
SXUS55 KMSO 220603
OSOMSO
MONTANA AWOS SUMMARY
NATIONAL WEATHER SERVICE MISSOULA MT
1203 AM MDT SAT NOV 22 2014

Montana AWOS Reports

MALTA       |KM75 220555Z AUTO 00000KT 40SM M02/M05 A2955 RMK AO1 T10211049
LAUREL      |K6S8 220555Z AUTO 24006KT 40SM 03/M07 A2966 RMK AO1 T00281066
SCOBEY      |K9S2 220555Z AUTO 00000KT 40SM M04/M08 A2958 RMK AO1 T10431082
MALTA       |KM75 220455Z AUTO 00000KT 40SM M02/M05 A2956 RMK AO1 T10211049
MALTA       |KM75 220555Z AUTO 00000KT 40SM M02/M05 A2955 RMK AO1 T10211049
PLAINS      |KS34 220555Z AUTO 00000KT 4SM 00/M03 A2953 RMK AO1 T00001027
TWIN BRIDGES|K7S1 220555Z AUTO 16009G17KT 40SM 04/M04 A2973 RMK AO1 T00391043






000
SXUS55 KMSO 220543
OSOMSO
MONTANA AWOS SUMMARY
NATIONAL WEATHER SERVICE MISSOULA MT
1143 PM MDT FRI NOV 21 2014

Montana AWOS Reports

LAUREL      |K6S8 220535Z AUTO 25004KT 40SM M01/M08 A2967 RMK AO1 T10051082






000
SXUS55 KMSO 220524
OSOMSO
MONTANA AWOS SUMMARY
NATIONAL WEATHER SERVICE MISSOULA MT
1123 PM MDT FRI NOV 21 2014

Montana AWOS Reports

LAUREL      |K6S8 220515Z AUTO 22004KT 40SM M01/M08 A2967 RMK AO1 T10101082






000
SXUS55 KMSO 220503
OSOMSO
MONTANA AWOS SUMMARY
NATIONAL WEATHER SERVICE MISSOULA MT
1103 PM MDT FRI NOV 21 2014

Montana AWOS Reports

LAUREL      |K6S8 220455Z AUTO 00000KT 40SM M01/M08 A2968 RMK AO1 T10051077
PLAINS      |KS34 220455Z AUTO 00000KT 5SM 00/M03 A2958 RMK AO1 T00001027
TWIN BRIDGES|K7S1 220455Z AUTO 00000KT 40SM 02/M05 A2973 RMK AO1 T00171049






000
SXUS55 KMSO 220444
OSOMSO
MONTANA AWOS SUMMARY
NATIONAL WEATHER SERVICE MISSOULA MT
1043 PM MDT FRI NOV 21 2014

Montana AWOS Reports

LAUREL      |K6S8 220435Z AUTO 00000KT 40SM M01/M08 A2969 RMK AO1 T10051077






000
SXUS55 KMSO 220423
OSOMSO
MONTANA AWOS SUMMARY
NATIONAL WEATHER SERVICE MISSOULA MT
1023 PM MDT FRI NOV 21 2014

Montana AWOS Reports

MALTA       |KM75 220415Z AUTO 00000KT 40SM M03/M06 A2958 RMK AO1 T10321060
LAUREL      |K6S8 220415Z AUTO 00000KT 40SM 00/M08 A2970 RMK AO1 T00001077






000
SXUS55 KMSO 220414
OSOMSO
MONTANA AWOS SUMMARY
NATIONAL WEATHER SERVICE MISSOULA MT
1013 PM MDT FRI NOV 21 2014

Montana AWOS Reports

PLAINS      |KS34 220355Z AUTO 00000KT 5SM 00/M03 A2960 RMK AO1 T00001032
TWIN BRIDGES|K7S1 220355Z AUTO 12007KT 40SM 02/M04 A2975 RMK AO1 T00221043
SCOBEY      |K9S2 220355Z AUTO 00000KT 40SM M02/M06 A2961 RMK AO1 T10161060






000
SXUS55 KMSO 220403
OSOMSO
MONTANA AWOS SUMMARY
NATIONAL WEATHER SERVICE MISSOULA MT
1003 PM MDT FRI NOV 21 2014

Montana AWOS Reports

LAUREL      |K6S8 220355Z AUTO 00000KT 40SM 00/M07 A2972 RMK AO1 T00001066






000
SXUS55 KMSO 220403
OSOMSO
MONTANA AWOS SUMMARY
NATIONAL WEATHER SERVICE MISSOULA MT
1003 PM MDT FRI NOV 21 2014

Montana AWOS Reports

LAUREL      |K6S8 220355Z AUTO 00000KT 40SM 00/M07 A2972 RMK AO1 T00001066






000
SXUS55 KMSO 220353
OSOMSO
MONTANA AWOS SUMMARY
NATIONAL WEATHER SERVICE MISSOULA MT
952 PM MDT FRI NOV 21 2014

Montana AWOS Reports

LAUREL      |K6S8 220335Z AUTO 00000KT 40SM 01/M07 A2972 RMK AO1 T00061066






000
SXUS55 KMSO 220323
OSOMSO
MONTANA AWOS SUMMARY
NATIONAL WEATHER SERVICE MISSOULA MT
923 PM MDT FRI NOV 21 2014

Montana AWOS Reports

LAUREL      |K6S8 220315Z AUTO 00000KT 40SM 01/M06 A2974 RMK AO1 T00111060






000
SXUS55 KMSO 220313
OSOMSO
MONTANA AWOS SUMMARY
NATIONAL WEATHER SERVICE MISSOULA MT
913 PM MDT FRI NOV 21 2014

Montana AWOS Reports

SCOBEY      |K9S2 220255Z AUTO 00000KT 40SM 00/M06 A2963 RMK AO1 T00001055
MALTA       |KM75 220255Z AUTO 00000KT 40SM M03/M06 A2962 RMK AO1 T10271055






000
SXUS55 KMSO 220303
OSOMSO
MONTANA AWOS SUMMARY
NATIONAL WEATHER SERVICE MISSOULA MT
903 PM MDT FRI NOV 21 2014

Montana AWOS Reports

LAUREL      |K6S8 220255Z AUTO 22005KT 40SM 01/M07 A2974 RMK AO1 T00061066
PLAINS      |KS34 220255Z AUTO 00000KT 7SM 00/M03 A2964 RMK AO1 T00001032
TWIN BRIDGES|K7S1 220255Z AUTO 19007KT 40SM 02/M04 A2976 RMK AO1 T00171043






000
SXUS55 KMSO 220244
OSOMSO
MONTANA AWOS SUMMARY
NATIONAL WEATHER SERVICE MISSOULA MT
843 PM MDT FRI NOV 21 2014

Montana AWOS Reports

LAUREL      |K6S8 220235Z AUTO 21005KT 40SM 01/M06 A2975 RMK AO1 T00111060






000
SXUS55 KMSO 220233
OSOMSO
MONTANA AWOS SUMMARY
NATIONAL WEATHER SERVICE MISSOULA MT
833 PM MDT FRI NOV 21 2014

Montana AWOS Reports

MALTA       |KM75 220155Z AUTO 00000KT 40SM M02/M06 A2964 RMK AO1 T10211055






000
SXUS55 KMSO 220223
OSOMSO
MONTANA AWOS SUMMARY
NATIONAL WEATHER SERVICE MISSOULA MT
823 PM MDT FRI NOV 21 2014

Montana AWOS Reports

LAUREL      |K6S8 220215Z AUTO 22004KT 40SM 00/M07 A2976 RMK AO1 T00001066






000
SXUS55 KMSO 220203
OSOMSO
MONTANA AWOS SUMMARY
NATIONAL WEATHER SERVICE MISSOULA MT
803 PM MDT FRI NOV 21 2014

Montana AWOS Reports

LAUREL      |K6S8 220155Z AUTO 21004KT 40SM 01/M07 A2977 RMK AO1 T00111071
PLAINS      |KS34 220155Z AUTO 00000KT 10SM 00/M04 A2970 RMK AO1 T00001038
TWIN BRIDGES|K7S1 220155Z AUTO 14006KT 40SM 02/M04 A2980 RMK AO1 T00221043
SCOBEY      |K9S2 220155Z AUTO 00000KT 40SM 02/M04 A2963 RMK AO1 T00171038






000
SXUS55 KMSO 220144
OSOMSO
MONTANA AWOS SUMMARY
NATIONAL WEATHER SERVICE MISSOULA MT
743 PM MDT FRI NOV 21 2014

Montana AWOS Reports

LAUREL      |K6S8 220135Z AUTO 20005KT 40SM 01/M07 A2978 RMK AO1 T00111066






000
SXUS55 KMSO 220123
OSOMSO
MONTANA AWOS SUMMARY
NATIONAL WEATHER SERVICE MISSOULA MT
723 PM MDT FRI NOV 21 2014

Montana AWOS Reports

LAUREL      |K6S8 220115Z AUTO 00000KT 40SM 01/M07 A2978 RMK AO1 T00111066






000
SXUS55 KMSO 220103
OSOMSO
MONTANA AWOS SUMMARY
NATIONAL WEATHER SERVICE MISSOULA MT
703 PM MDT FRI NOV 21 2014

Montana AWOS Reports

LAUREL      |K6S8 220055Z AUTO 21004KT 40SM 02/M06 A2978 RMK AO1 T00171060
SCOBEY      |K9S2 220055Z AUTO 25007KT 40SM 02/M04 A2964 RMK AO1 T00171038
PLAINS      |KS34 220055Z AUTO 00000KT 10SM 01/M04 A2973 RMK AO1 T00061038
TWIN BRIDGES|K7S1 220055Z AUTO 00000KT 40SM 02/M04 A2981 RMK AO1 T00171043
MALTA       |KM75 220055Z AUTO 00000KT 40SM 00/M04 A2965 RMK AO1 T00001038






000
SXUS55 KMSO 220053
OSOMSO
MONTANA AWOS SUMMARY
NATIONAL WEATHER SERVICE MISSOULA MT
652 PM MDT FRI NOV 21 2014

Montana AWOS Reports

LAUREL      |K6S8 220035Z AUTO 00000KT 40SM 02/M06 A2979 RMK AO1 T00221060






000
SXUS55 KMSO 220033
OSOMSO
MONTANA AWOS SUMMARY
NATIONAL WEATHER SERVICE MISSOULA MT
633 PM MDT FRI NOV 21 2014

Montana AWOS Reports

MALTA       |KM75 212355Z AUTO 00000KT 40SM 02/M03 A2967 RMK AO1 T00171032






000
SXUS55 KMSO 220023
OSOMSO
MONTANA AWOS SUMMARY
NATIONAL WEATHER SERVICE MISSOULA MT
623 PM MDT FRI NOV 21 2014

Montana AWOS Reports

LAUREL      |K6S8 220015Z AUTO 21005KT 40SM 03/M06 A2980 RMK AO1 T00331055






000
SXUS55 KMSO 220003
OSOMSO
MONTANA AWOS SUMMARY
NATIONAL WEATHER SERVICE MISSOULA MT
603 PM MDT FRI NOV 21 2014

Montana AWOS Reports

LAUREL      |K6S8 212355Z AUTO 21006KT 40SM 03/M06 A2980 RMK AO1 T00331055
SCOBEY      |K9S2 212355Z AUTO 00000KT 40SM 03/M04 A2965 RMK AO1 T00281038
PLAINS      |KS34 212355Z AUTO 00000KT 15SM 02/M03 A2978 RMK AO1 T00171027
TWIN BRIDGES|K7S1 212355Z AUTO 19006KT 40SM 03/M04 A2984 RMK AO1 T00281043






000
SXUS55 KMSO 212343
OSOMSO
MONTANA AWOS SUMMARY
NATIONAL WEATHER SERVICE MISSOULA MT
543 PM MDT FRI NOV 21 2014

Montana AWOS Reports

LAUREL      |K6S8 212335Z AUTO 19005KT 40SM 04/M05 A2980 RMK AO1 T00441049






000
SXUS55 KMSO 212323
OSOMSO
MONTANA AWOS SUMMARY
NATIONAL WEATHER SERVICE MISSOULA MT
523 PM MDT FRI NOV 21 2014

Montana AWOS Reports

LAUREL      |K6S8 212315Z AUTO 20006KT 40SM 05/M05 A2981 RMK AO1 T00501049






000
SXUS55 KMSO 212303
OSOMSO
MONTANA AWOS SUMMARY
NATIONAL WEATHER SERVICE MISSOULA MT
503 PM MDT FRI NOV 21 2014

Montana AWOS Reports

LAUREL      |K6S8 212255Z AUTO 19007KT 40SM 06/M05 A2981 RMK AO1 T00561049
PLAINS      |KS34 212255Z AUTO 00000KT 10SM 02/M03 A2980 RMK AO1 T00221027
TWIN BRIDGES|K7S1 212255Z AUTO 00000KT 40SM 04/M05 A2986 RMK AO1 T00441049
SCOBEY      |K9S2 212255Z AUTO 00000KT 40SM 04/M04 A2966 RMK AO1 T00441038
MALTA       |KM75 212255Z AUTO 00000KT 40SM 05/M02 A2967 RMK AO1 T00501016






000
SXUS55 KMSO 212243
OSOMSO
MONTANA AWOS SUMMARY
NATIONAL WEATHER SERVICE MISSOULA MT
443 PM MDT FRI NOV 21 2014

Montana AWOS Reports

LAUREL      |K6S8 212235Z AUTO 19007KT 40SM 06/M05 A2981 RMK AO1 T00611049






000
SXUS55 KMSO 212223
OSOMSO
MONTANA AWOS SUMMARY
NATIONAL WEATHER SERVICE MISSOULA MT
422 PM MDT FRI NOV 21 2014

Montana AWOS Reports

LAUREL      |K6S8 212215Z AUTO 19005KT 40SM 06/M05 A2981 RMK AO1 T00611049






000
SXUS55 KMSO 212203
OSOMSO
MONTANA AWOS SUMMARY
NATIONAL WEATHER SERVICE MISSOULA MT
403 PM MDT FRI NOV 21 2014

Montana AWOS Reports

LAUREL      |K6S8 212155Z AUTO 18007KT 40SM 06/M05 A2981 RMK AO1 T00611049
SCOBEY      |K9S2 212155Z AUTO 26012KT 40SM 06/M03 A2964 RMK AO1 T00611032
PLAINS      |KS34 212155Z AUTO 00000KT 10SM 02/M03 A2983 RMK AO1 T00221027
TWIN BRIDGES|K7S1 212155Z AUTO 00000KT 40SM 06/M06 A2987 RMK AO1 T00561060
MALTA       |KM75 212155Z AUTO 00000KT 40SM 06/M02 A2967 RMK AO1 T00611016






000
SXUS55 KMSO 212143
OSOMSO
MONTANA AWOS SUMMARY
NATIONAL WEATHER SERVICE MISSOULA MT
343 PM MDT FRI NOV 21 2014

Montana AWOS Reports

LAUREL      |K6S8 212135Z AUTO 18007KT 40SM 06/M05 A2981 RMK AO1 T00611049






000
SXUS55 KMSO 212143
OSOMSO
MONTANA AWOS SUMMARY
NATIONAL WEATHER SERVICE MISSOULA MT
343 PM MDT FRI NOV 21 2014

Montana AWOS Reports

LAUREL      |K6S8 212135Z AUTO 18007KT 40SM 06/M05 A2981 RMK AO1 T00611049






000
SXUS55 KMSO 212123
OSOMSO
MONTANA AWOS SUMMARY
NATIONAL WEATHER SERVICE MISSOULA MT
322 PM MDT FRI NOV 21 2014

Montana AWOS Reports

LAUREL      |K6S8 212115Z AUTO 19005KT 40SM 06/M05 A2982 RMK AO1 T00611049






000
SXUS55 KMSO 212104
OSOMSO
MONTANA AWOS SUMMARY
NATIONAL WEATHER SERVICE MISSOULA MT
303 PM MDT FRI NOV 21 2014

Montana AWOS Reports

LAUREL      |K6S8 212055Z AUTO 19008KT 40SM 06/M05 A2982 RMK AO1 T00611049
SCOBEY      |K9S2 212055Z AUTO 25017KT 40SM 06/M04 A2963 RMK AO1 T00561038
MALTA       |KM75 212055Z AUTO 00000KT 40SM 06/M02 A2967 RMK AO1 T00611016
PLAINS      |KS34 212055Z AUTO 00000KT 15SM 02/M03 A2985 RMK AO1 T00171032
TWIN BRIDGES|K7S1 212055Z AUTO 00000KT 40SM 05/M06 A2988 RMK AO1 T00501060






000
SXUS55 KMSO 212043
OSOMSO
MONTANA AWOS SUMMARY
NATIONAL WEATHER SERVICE MISSOULA MT
243 PM MDT FRI NOV 21 2014

Montana AWOS Reports

LAUREL      |K6S8 212035Z AUTO 19010G15KT 40SM 07/M05 A2982 RMK AO1 T00671049






000
SXUS55 KMSO 212023
OSOMSO
MONTANA AWOS SUMMARY
NATIONAL WEATHER SERVICE MISSOULA MT
223 PM MDT FRI NOV 21 2014

Montana AWOS Reports

LAUREL      |K6S8 212015Z AUTO 19008KT 40SM 06/M05 A2982 RMK AO1 T00611049






000
SXUS55 KMSO 212003
OSOMSO
MONTANA AWOS SUMMARY
NATIONAL WEATHER SERVICE MISSOULA MT
203 PM MDT FRI NOV 21 2014

Montana AWOS Reports

SCOBEY      |K9S2 211955Z AUTO 25012G17KT 40SM 05/M04 A2963 RMK AO1 T00501038
TWIN BRIDGES|K7S1 211955Z AUTO 19006KT 40SM 04/M06 A2991 RMK AO1 T00441060
LAUREL      |K6S8 211955Z AUTO 21008KT 40SM 05/M06 A2983 RMK AO1 T00501055
MALTA       |KM75 211955Z AUTO 00000KT 40SM 06/M02 A2967 RMK AO1 T00611016
PLAINS      |KS34 211955Z AUTO 00000KT 15SM 02/M04 A2988 RMK AO1 T00171038






000
SXUS55 KMSO 211944
OSOMSO
MONTANA AWOS SUMMARY
NATIONAL WEATHER SERVICE MISSOULA MT
143 PM MDT FRI NOV 21 2014

Montana AWOS Reports

LAUREL      |K6S8 211935Z AUTO 20006KT 40SM 04/M06 A2983 RMK AO1 T00391055






000
SXUS55 KMSO 211923
OSOMSO
MONTANA AWOS SUMMARY
NATIONAL WEATHER SERVICE MISSOULA MT
123 PM MDT FRI NOV 21 2014

Montana AWOS Reports

LAUREL      |K6S8 211915Z AUTO 20007KT 40SM 03/M06 A2983 RMK AO1 T00331060






000
SXUS55 KMSO 211914
OSOMSO
MONTANA AWOS SUMMARY
NATIONAL WEATHER SERVICE MISSOULA MT
113 PM MDT FRI NOV 21 2014

Montana AWOS Reports

LAUREL      |K6S8 211855Z AUTO 21004KT 40SM 03/M06 A2984 RMK AO1 T00331060
PLAINS      |KS34 211855Z AUTO 00000KT 15SM 01/M04 A2989 RMK AO1 T00111038
TWIN BRIDGES|K7S1 211855Z AUTO 19006KT 40SM 03/M06 A2993 RMK AO1 T00331060






000
SXUS55 KMSO 211903
OSOMSO
MONTANA AWOS SUMMARY
NATIONAL WEATHER SERVICE MISSOULA MT
103 PM MDT FRI NOV 21 2014

Montana AWOS Reports

SCOBEY      |K9S2 211855Z AUTO 26016G22KT 40SM 05/M04 A2962 RMK AO1 T00501038
MALTA       |KM75 211855Z AUTO 00000KT 40SM 05/M02 A2968 RMK AO1 T00501021






000
SXUS55 KMSO 211844
OSOMSO
MONTANA AWOS SUMMARY
NATIONAL WEATHER SERVICE MISSOULA MT
1243 PM MDT FRI NOV 21 2014

Montana AWOS Reports

LAUREL      |K6S8 211835Z AUTO 00000KT 40SM 03/M07 A2984 RMK AO1 T00281066






000
SXUS55 KMSO 211823
OSOMSO
MONTANA AWOS SUMMARY
NATIONAL WEATHER SERVICE MISSOULA MT
1223 PM MDT FRI NOV 21 2014

Montana AWOS Reports

LAUREL      |K6S8 211815Z AUTO 00000KT 40SM 02/M08 A2986 RMK AO1 T00221082






000
SXUS55 KMSO 211803
OSOMSO
MONTANA AWOS SUMMARY
NATIONAL WEATHER SERVICE MISSOULA MT
1203 PM MDT FRI NOV 21 2014

Montana AWOS Reports

LAUREL      |K6S8 211755Z AUTO 00000KT 40SM 02/M08 A2986 RMK AO1 T00221082
SCOBEY      |K9S2 211755Z AUTO 25020G24KT 40SM 04/M04 A2962 RMK AO1 T00441043
TWIN BRIDGES|K7S1 211755Z AUTO 14006KT 40SM 02/M06 A2994 RMK AO1 T00171060
PLAINS      |KS34 211755Z AUTO 00000KT 15SM 02/M03 A2992 RMK AO1 T00221027






000
SXUS55 KMSO 211753
OSOMSO
MONTANA AWOS SUMMARY
NATIONAL WEATHER SERVICE MISSOULA MT
1152 AM MDT FRI NOV 21 2014

Montana AWOS Reports

LAUREL      |K6S8 211735Z AUTO 21008KT 40SM 02/M08 A2985 RMK AO1 T00171082






000
SXUS55 KMSO 211723
OSOMSO
MONTANA AWOS SUMMARY
NATIONAL WEATHER SERVICE MISSOULA MT
1123 AM MDT FRI NOV 21 2014

Montana AWOS Reports

LAUREL      |K6S8 211715Z AUTO 21006KT 40SM 02/M08 A2985 RMK AO1 T00221082






000
SXUS55 KMSO 211713
OSOMSO
MONTANA AWOS SUMMARY
NATIONAL WEATHER SERVICE MISSOULA MT
1113 AM MDT FRI NOV 21 2014

Montana AWOS Reports

TWIN BRIDGES|K7S1 211655Z AUTO 00000KT 40SM M02/M07 A2996 RMK AO1 T10161066
PLAINS      |KS34 211655Z AUTO 00000KT 10SM M01/M05 A2993 RMK AO1 T10101049






000
SXUS55 KMSO 211703
OSOMSO
MONTANA AWOS SUMMARY
NATIONAL WEATHER SERVICE MISSOULA MT
1103 AM MDT FRI NOV 21 2014

Montana AWOS Reports

LAUREL      |K6S8 211655Z AUTO 20006KT 40SM 02/M08 A2985 RMK AO1 T00171082
SCOBEY      |K9S2 211655Z AUTO 25018G24KT 40SM 03/M04 A2961 RMK AO1 T00331038
MALTA       |KM75 211655Z AUTO 21005KT 40SM 01/M04 A2970 RMK AO1 T00111038






000
SXUS55 KMSO 211644
OSOMSO
MONTANA AWOS SUMMARY
NATIONAL WEATHER SERVICE MISSOULA MT
1043 AM MDT FRI NOV 21 2014

Montana AWOS Reports

LAUREL      |K6S8 211635Z AUTO 22008KT 40SM 00/M08 A2985 RMK AO1 T00001082






000
SXUS55 KMSO 211623
OSOMSO
MONTANA AWOS SUMMARY
NATIONAL WEATHER SERVICE MISSOULA MT
1023 AM MDT FRI NOV 21 2014

Montana AWOS Reports

LAUREL      |K6S8 211615Z AUTO 24004KT 40SM M01/M09 A2985 RMK AO1 T10101088






000
SXUS55 KMSO 211614
OSOMSO
MONTANA AWOS SUMMARY
NATIONAL WEATHER SERVICE MISSOULA MT
1013 AM MDT FRI NOV 21 2014

Montana AWOS Reports

PLAINS      |KS34 211555Z AUTO 00000KT 5SM M02/M06 A2993 RMK AO1 T10161055
TWIN BRIDGES|K7S1 211555Z AUTO 00000KT 40SM M03/M08 A2995 RMK AO1 T10271077
SCOBEY      |K9S2 211555Z AUTO 25021G30KT 40SM 02/M06 A2959 RMK AO1 T00221060






000
SXUS55 KMSO 211603
OSOMSO
MONTANA AWOS SUMMARY
NATIONAL WEATHER SERVICE MISSOULA MT
1003 AM MDT FRI NOV 21 2014

Montana AWOS Reports

LAUREL      |K6S8 211555Z AUTO 21007KT 40SM M01/M09 A2985 RMK AO1 T10101093






000
SXUS55 KMSO 211603
OSOMSO
MONTANA AWOS SUMMARY
NATIONAL WEATHER SERVICE MISSOULA MT
1003 AM MDT FRI NOV 21 2014

Montana AWOS Reports

LAUREL      |K6S8 211555Z AUTO 21007KT 40SM M01/M09 A2985 RMK AO1 T10101093






000
SXUS55 KMSO 211544
OSOMSO
MONTANA AWOS SUMMARY
NATIONAL WEATHER SERVICE MISSOULA MT
943 AM MDT FRI NOV 21 2014

Montana AWOS Reports

LAUREL      |K6S8 211535Z AUTO 21005KT 40SM M02/M09 A2984 RMK AO1 T10161093






000
SXUS55 KMSO 211524
OSOMSO
MONTANA AWOS SUMMARY
NATIONAL WEATHER SERVICE MISSOULA MT
923 AM MDT FRI NOV 21 2014

Montana AWOS Reports

LAUREL      |K6S8 211515Z AUTO 22005KT 40SM M03/M10 A2985 RMK AO1 T10271099






000
SXUS55 KMSO 211514
OSOMSO
MONTANA AWOS SUMMARY
NATIONAL WEATHER SERVICE MISSOULA MT
913 AM MDT FRI NOV 21 2014

Montana AWOS Reports

TWIN BRIDGES|K7S1 211455Z AUTO 00000KT 40SM M04/M09 A2995 RMK AO1 T10381093






000
SXUS55 KMSO 211443
OSOMSO
MONTANA AWOS SUMMARY
NATIONAL WEATHER SERVICE MISSOULA MT
843 AM MDT FRI NOV 21 2014

Montana AWOS Reports

LAUREL      |K6S8 211435Z AUTO 00000KT 40SM M06/M11 A2984 RMK AO1 T10551105






000
SXUS55 KMSO 211433
OSOMSO
MONTANA AWOS SUMMARY
NATIONAL WEATHER SERVICE MISSOULA MT
833 AM MDT FRI NOV 21 2014

Montana AWOS Reports

SCOBEY      |K9S2 211355Z AUTO 24011G16KT 40SM 01/M05 A2961 RMK AO1 T00111049
MALTA       |KM75 211355Z AUTO 00000KT 40SM M07/M09 A2968 RMK AO1 T10661093






000
SXUS55 KMSO 211423
OSOMSO
MONTANA AWOS SUMMARY
NATIONAL WEATHER SERVICE MISSOULA MT
823 AM MDT FRI NOV 21 2014

Montana AWOS Reports

LAUREL      |K6S8 211415Z AUTO 00000KT 40SM M05/M11 A2984 RMK AO1 T10491105
PLAINS      |KS34 211355Z AUTO 00000KT 5SM M03/M06 A2993 RMK AO1 T10271060
TWIN BRIDGES|K7S1 211355Z AUTO 00000KT 40SM M04/M09 A2995 RMK AO1 T10431093






000
SXUS55 KMSO 211413
OSOMSO
MONTANA AWOS SUMMARY
NATIONAL WEATHER SERVICE MISSOULA MT
813 AM MDT FRI NOV 21 2014

Montana AWOS Reports

LAUREL      |K6S8 211355Z AUTO 00000KT 40SM M05/M11 A2984 RMK AO1 T10491105






000
SXUS55 KMSO 211344
OSOMSO
MONTANA AWOS SUMMARY
NATIONAL WEATHER SERVICE MISSOULA MT
743 AM MDT FRI NOV 21 2014

Montana AWOS Reports

LAUREL      |K6S8 211335Z AUTO 00000KT 40SM M04/M10 A2982 RMK AO1 T10381099
MALTA       |KM75 211335Z AUTO 00000KT 25SM M08/M11 A2967 RMK AO1 T10821110






000
SXUS55 KMSO 211323
OSOMSO
MONTANA AWOS SUMMARY
NATIONAL WEATHER SERVICE MISSOULA MT
722 AM MDT FRI NOV 21 2014

Montana AWOS Reports

LAUREL      |K6S8 211315Z AUTO 19008KT 40SM M04/M10 A2982 RMK AO1 T10381099
MALTA       |KM75 211315Z AUTO 00000KT 25SM M07/M11 A2967 RMK AO1 T10711105






000
SXUS55 KMSO 211303
OSOMSO
MONTANA AWOS SUMMARY
NATIONAL WEATHER SERVICE MISSOULA MT
703 AM MDT FRI NOV 21 2014

Montana AWOS Reports

LAUREL      |K6S8 211255Z AUTO 22005KT 40SM M03/M09 A2982 RMK AO1 T10321093
PLAINS      |KS34 211255Z AUTO 00000KT 5SM M02/M06 A2994 RMK AO1 T10211055
TWIN BRIDGES|K7S1 211255Z AUTO 10005KT 40SM M04/M08 A2994 RMK AO1 T10431082
SCOBEY      |K9S2 211255Z AUTO 20004KT 40SM 00/M09 A2962 RMK AO1 T00001088






000
SXUS55 KMSO 211253
OSOMSO
MONTANA AWOS SUMMARY
NATIONAL WEATHER SERVICE MISSOULA MT
653 AM MDT FRI NOV 21 2014

Montana AWOS Reports

MALTA       |KM75 211055Z AUTO 00000KT 25SM M09/M13 A2967 RMK AO1 T10931127






000
SXUS55 KMSO 211243
OSOMSO
MONTANA AWOS SUMMARY
NATIONAL WEATHER SERVICE MISSOULA MT
643 AM MDT FRI NOV 21 2014

Montana AWOS Reports

MALTA       |KM75 211235Z AUTO 00000KT 40SM M07/M09 A2966 RMK AO1 T10661093






000
SXUS55 KMSO 211233
OSOMSO
MONTANA AWOS SUMMARY
NATIONAL WEATHER SERVICE MISSOULA MT
633 AM MDT FRI NOV 21 2014

Montana AWOS Reports

SCOBEY      |K9S2 211155Z AUTO 24012G16KT 40SM 00/M08 A2963 RMK AO1 T00001082






000
SXUS55 KMSO 211223
OSOMSO
MONTANA AWOS SUMMARY
NATIONAL WEATHER SERVICE MISSOULA MT
623 AM MDT FRI NOV 21 2014

Montana AWOS Reports

MALTA       |KM75 211215Z AUTO 00000KT 40SM M07/M09 A2966 RMK AO1 T10661093
LAUREL      |K6S8 211215Z AUTO 20008KT 40SM M04/M09 A2982 RMK AO1 T10431093






000
SXUS55 KMSO 211213
OSOMSO
MONTANA AWOS SUMMARY
NATIONAL WEATHER SERVICE MISSOULA MT
612 AM MDT FRI NOV 21 2014

Montana AWOS Reports

PLAINS      |KS34 211155Z AUTO 00000KT 5SM M02/M06 A2994 RMK AO1 T10211055






000
SXUS55 KMSO 211203
OSOMSO
MONTANA AWOS SUMMARY
NATIONAL WEATHER SERVICE MISSOULA MT
603 AM MDT FRI NOV 21 2014

Montana AWOS Reports

LAUREL      |K6S8 211155Z AUTO 00000KT 40SM M04/M11 A2983 RMK AO1 T10381105
TWIN BRIDGES|K7S1 211155Z AUTO 00000KT 25SM M04/M09 A2995 RMK AO1 T10381088






000
SXUS55 KMSO 211143
OSOMSO
MONTANA AWOS SUMMARY
NATIONAL WEATHER SERVICE MISSOULA MT
543 AM MDT FRI NOV 21 2014

Montana AWOS Reports

LAUREL      |K6S8 211135Z AUTO 00000KT 40SM M03/M10 A2983 RMK AO1 T10271099






000
SXUS55 KMSO 211123
OSOMSO
MONTANA AWOS SUMMARY
NATIONAL WEATHER SERVICE MISSOULA MT
523 AM MDT FRI NOV 21 2014

Montana AWOS Reports

LAUREL      |K6S8 211115Z AUTO 19008KT 40SM M03/M10 A2983 RMK AO1 T10271099






000
SXUS55 KMSO 211103
OSOMSO
MONTANA AWOS SUMMARY
NATIONAL WEATHER SERVICE MISSOULA MT
503 AM MDT FRI NOV 21 2014

Montana AWOS Reports

LAUREL      |K6S8 211055Z AUTO 19008KT 40SM M03/M10 A2983 RMK AO1 T10271099
TWIN BRIDGES|K7S1 211055Z AUTO 06004KT 40SM M02/M08 A2995 RMK AO1 T10211082
PLAINS      |KS34 211055Z AUTO 00000KT 5SM M03/M07 A2995 RMK AO1 T10271066
SCOBEY      |K9S2 211055Z AUTO 20007KT 40SM M03/M11 A2965 RMK AO1 T10271105






000
SXUS55 KMSO 211043
OSOMSO
MONTANA AWOS SUMMARY
NATIONAL WEATHER SERVICE MISSOULA MT
443 AM MDT FRI NOV 21 2014

Montana AWOS Reports

LAUREL      |K6S8 211035Z AUTO 21010KT 40SM M03/M10 A2983 RMK AO1 T10271099






000
SXUS55 KMSO 211023
OSOMSO
MONTANA AWOS SUMMARY
NATIONAL WEATHER SERVICE MISSOULA MT
423 AM MDT FRI NOV 21 2014

Montana AWOS Reports

MALTA       |KM75 211015Z AUTO 00000KT 25SM M11/M14 A2968 RMK AO1 T11101143
LAUREL      |K6S8 211015Z AUTO 20006KT 40SM M03/M10 A2983 RMK AO1 T10271099






000
SXUS55 KMSO 211014
OSOMSO
MONTANA AWOS SUMMARY
NATIONAL WEATHER SERVICE MISSOULA MT
413 AM MDT FRI NOV 21 2014

Montana AWOS Reports

MALTA       |KM75 210955Z AUTO 00000KT 25SM M11/M14 A2968 RMK AO1 T11101143






000
SXUS55 KMSO 211014
OSOMSO
MONTANA AWOS SUMMARY
NATIONAL WEATHER SERVICE MISSOULA MT
413 AM MDT FRI NOV 21 2014

Montana AWOS Reports

MALTA       |KM75 210955Z AUTO 00000KT 25SM M11/M14 A2968 RMK AO1 T11101143






000
SXUS55 KMSO 211003
OSOMSO
MONTANA AWOS SUMMARY
NATIONAL WEATHER SERVICE MISSOULA MT
403 AM MDT FRI NOV 21 2014

Montana AWOS Reports

LAUREL      |K6S8 210955Z AUTO 21005KT 40SM M03/M09 A2984 RMK AO1 T10271093
SCOBEY      |K9S2 210955Z AUTO 20007KT 40SM M01/M10 A2966 RMK AO1 T10101099
PLAINS      |KS34 210955Z AUTO 00000KT 7SM M02/M06 A2997 RMK AO1 T10211060
TWIN BRIDGES|K7S1 210955Z AUTO 00000KT 25SM M02/M08 A2995 RMK AO1 T10161077






000
SXUS55 KMSO 210944
OSOMSO
MONTANA AWOS SUMMARY
NATIONAL WEATHER SERVICE MISSOULA MT
343 AM MDT FRI NOV 21 2014

Montana AWOS Reports

LAUREL      |K6S8 210935Z AUTO 00000KT 40SM M03/M09 A2984 RMK AO1 T10271093






000
SXUS55 KMSO 210923
OSOMSO
MONTANA AWOS SUMMARY
NATIONAL WEATHER SERVICE MISSOULA MT
323 AM MDT FRI NOV 21 2014

Montana AWOS Reports

LAUREL      |K6S8 210915Z AUTO 21006KT 40SM M02/M09 A2984 RMK AO1 T10211093






000
SXUS55 KMSO 210913
OSOMSO
MONTANA AWOS SUMMARY
NATIONAL WEATHER SERVICE MISSOULA MT
313 AM MDT FRI NOV 21 2014

Montana AWOS Reports

MALTA       |KM75 210855Z AUTO 00000KT 25SM M10/M13 A2968 RMK AO1 T10991132






000
SXUS55 KMSO 210904
OSOMSO
MONTANA AWOS SUMMARY
NATIONAL WEATHER SERVICE MISSOULA MT
303 AM MDT FRI NOV 21 2014

Montana AWOS Reports

LAUREL      |K6S8 210855Z AUTO 21006KT 40SM M02/M09 A2984 RMK AO1 T10211093
TWIN BRIDGES|K7S1 210855Z AUTO 13004KT 40SM M01/M07 A2995 RMK AO1 T10101071
SCOBEY      |K9S2 210855Z AUTO 00000KT 40SM M02/M09 A2967 RMK AO1 T10211093
PLAINS      |KS34 210855Z AUTO 00000KT 7SM M02/M06 A2998 RMK AO1 T10211060






000
SXUS55 KMSO 210843
OSOMSO
MONTANA AWOS SUMMARY
NATIONAL WEATHER SERVICE MISSOULA MT
243 AM MDT FRI NOV 21 2014

Montana AWOS Reports

LAUREL      |K6S8 210835Z AUTO 21004KT 40SM M02/M10 A2983 RMK AO1 T10211099
MALTA       |KM75 210755Z AUTO 00000KT 25SM M11/M14 A2970 RMK AO1 T11051138






000
SXUS55 KMSO 210823
OSOMSO
MONTANA AWOS SUMMARY
NATIONAL WEATHER SERVICE MISSOULA MT
223 AM MDT FRI NOV 21 2014

Montana AWOS Reports

LAUREL      |K6S8 210815Z AUTO 21005KT 40SM M02/M09 A2984 RMK AO1 T10211093
SCOBEY      |K9S2 210755Z AUTO 00000KT 25SM M05/M11 A2968 RMK AO1 T10491105
MALTA       |KM75 210655Z AUTO 00000KT 25SM M10/M13 A2970 RMK AO1 T10991132






000
SXUS55 KMSO 210803
OSOMSO
MONTANA AWOS SUMMARY
NATIONAL WEATHER SERVICE MISSOULA MT
203 AM MDT FRI NOV 21 2014

Montana AWOS Reports

LAUREL      |K6S8 210755Z AUTO 00000KT 40SM M01/M09 A2984 RMK AO1 T10101088
TWIN BRIDGES|K7S1 210755Z AUTO 00000KT 40SM 00/M06 A2995 RMK AO1 T00001060
PLAINS      |KS34 210755Z AUTO 00000KT 5SM M02/M06 A2999 RMK AO1 T10211060






000
SXUS55 KMSO 210743
OSOMSO
MONTANA AWOS SUMMARY
NATIONAL WEATHER SERVICE MISSOULA MT
143 AM MDT FRI NOV 21 2014

Montana AWOS Reports

LAUREL      |K6S8 210735Z AUTO 21005KT 40SM M01/M09 A2984 RMK AO1 T10051088






000
SXUS55 KMSO 210723
OSOMSO
MONTANA AWOS SUMMARY
NATIONAL WEATHER SERVICE MISSOULA MT
123 AM MDT FRI NOV 21 2014

Montana AWOS Reports

LAUREL      |K6S8 210715Z AUTO 20008KT 40SM M01/M09 A2984 RMK AO1 T10051088






000
SXUS55 KMSO 210713
OSOMSO
MONTANA AWOS SUMMARY
NATIONAL WEATHER SERVICE MISSOULA MT
113 AM MDT FRI NOV 21 2014

Montana AWOS Reports

SCOBEY      |K9S2 210655Z AUTO 16004KT 15SM M07/M13 A2969 RMK AO1 T10711127






000
SXUS55 KMSO 210703
OSOMSO
MONTANA AWOS SUMMARY
NATIONAL WEATHER SERVICE MISSOULA MT
103 AM MDT FRI NOV 21 2014

Montana AWOS Reports

LAUREL      |K6S8 210655Z AUTO 20005KT 40SM M01/M09 A2983 RMK AO1 T10051088
TWIN BRIDGES|K7S1 210655Z AUTO 00000KT 40SM 01/M06 A2996 RMK AO1 T00111060






000
SXUS55 KMSO 210643
OSOMSO
MONTANA AWOS SUMMARY
NATIONAL WEATHER SERVICE MISSOULA MT
1243 AM MDT FRI NOV 21 2014

Montana AWOS Reports

LAUREL      |K6S8 210635Z AUTO 20008KT 40SM M01/M09 A2983 RMK AO1 T10051093
MALTA       |KM75 210635Z AUTO 00000KT 25SM M09/M12 A2971 RMK AO1 T10881121






000
SXUS55 KMSO 210623
OSOMSO
MONTANA AWOS SUMMARY
NATIONAL WEATHER SERVICE MISSOULA MT
1223 AM MDT FRI NOV 21 2014

Montana AWOS Reports

LAUREL      |K6S8 210615Z AUTO 20006KT 40SM M01/M09 A2983 RMK AO1 T10051088






000
SXUS55 KMSO 210603
OSOMSO
MONTANA AWOS SUMMARY
NATIONAL WEATHER SERVICE MISSOULA MT
1203 AM MDT FRI NOV 21 2014

Montana AWOS Reports

LAUREL      |K6S8 210555Z AUTO 21007KT 40SM M01/M09 A2984 RMK AO1 T10101093
TWIN BRIDGES|K7S1 210555Z AUTO 11004KT 40SM 01/M06 A2995 RMK AO1 T00111055
SCOBEY      |K9S2 210555Z AUTO 16004KT 15SM M06/M12 A2970 RMK AO1 T10601116
PLAINS      |KS34 210555Z AUTO 00000KT 7SM M02/M06 A3001 RMK AO1 T10211060






000
SXUS55 KMSO 210543
OSOMSO
MONTANA AWOS SUMMARY
NATIONAL WEATHER SERVICE MISSOULA MT
1143 PM MDT THU NOV 20 2014

Montana AWOS Reports

LAUREL      |K6S8 210535Z AUTO 21007KT 40SM M01/M09 A2984 RMK AO1 T10101088
MALTA       |KM75 210535Z AUTO 00000KT 10SM M10/M13 A2972 RMK AO1 T10991132






000
SXUS55 KMSO 210523
OSOMSO
MONTANA AWOS SUMMARY
NATIONAL WEATHER SERVICE MISSOULA MT
1123 PM MDT THU NOV 20 2014

Montana AWOS Reports

LAUREL      |K6S8 210515Z AUTO 20006KT 40SM M01/M09 A2984 RMK AO1 T10101088
MALTA       |KM75 210515Z AUTO 00000KT 10SM M10/M13 A2973 RMK AO1 T10991132






000
SXUS55 KMSO 210503
OSOMSO
MONTANA AWOS SUMMARY
NATIONAL WEATHER SERVICE MISSOULA MT
1103 PM MDT THU NOV 20 2014

Montana AWOS Reports

LAUREL      |K6S8 210455Z AUTO 20008KT 40SM M01/M08 A2984 RMK AO1 T10051082
TWIN BRIDGES|K7S1 210455Z AUTO 11006KT 40SM 02/M06 A2995 RMK AO1 T00171055
PLAINS      |KS34 210455Z AUTO 00000KT 7SM M02/M07 A3002 RMK AO1 T10211066
SCOBEY      |K9S2 210455Z AUTO 00000KT 15SM M07/M12 A2971 RMK AO1 T10711121






000
SXUS55 KMSO 210454
OSOMSO
MONTANA AWOS SUMMARY
NATIONAL WEATHER SERVICE MISSOULA MT
1053 PM MDT THU NOV 20 2014

Montana AWOS Reports

LAUREL      |K6S8 210435Z AUTO 21006KT 40SM M01/M08 A2984 RMK AO1 T10051082






000
SXUS55 KMSO 210443
OSOMSO
MONTANA AWOS SUMMARY
NATIONAL WEATHER SERVICE MISSOULA MT
1043 PM MDT THU NOV 20 2014

Montana AWOS Reports

MALTA       |KM75 210435Z AUTO 00000KT 7SM M10/M13 A2972 RMK AO1 T10991132






000
SXUS55 KMSO 210423
OSOMSO
MONTANA AWOS SUMMARY
NATIONAL WEATHER SERVICE MISSOULA MT
1023 PM MDT THU NOV 20 2014

Montana AWOS Reports

LAUREL      |K6S8 210415Z AUTO 21005KT 40SM M01/M08 A2984 RMK AO1 T10051082






000
SXUS55 KMSO 210423
OSOMSO
MONTANA AWOS SUMMARY
NATIONAL WEATHER SERVICE MISSOULA MT
1023 PM MDT THU NOV 20 2014

Montana AWOS Reports

LAUREL      |K6S8 210415Z AUTO 21005KT 40SM M01/M08 A2984 RMK AO1 T10051082






000
SXUS55 KMSO 210404
OSOMSO
MONTANA AWOS SUMMARY
NATIONAL WEATHER SERVICE MISSOULA MT
1003 PM MDT THU NOV 20 2014

Montana AWOS Reports

LAUREL      |K6S8 210355Z AUTO 21007KT 40SM M01/M08 A2984 RMK AO1 T10051082
SCOBEY      |K9S2 210355Z AUTO 00000KT 10SM M09/M15 A2972 RMK AO1 T10931149
PLAINS      |KS34 210355Z AUTO 00000KT 10SM M03/M07 A3001 RMK AO1 T10271071
TWIN BRIDGES|K7S1 210355Z AUTO 11005KT 40SM 01/M06 A2994 RMK AO1 T00111055






000
SXUS55 KMSO 210343
OSOMSO
MONTANA AWOS SUMMARY
NATIONAL WEATHER SERVICE MISSOULA MT
943 PM MDT THU NOV 20 2014

Montana AWOS Reports

LAUREL      |K6S8 210335Z AUTO 21007KT 40SM M01/M08 A2984 RMK AO1 T10051082
MALTA       |KM75 210335Z AUTO 00000KT 1/2SM M09/M13 A2973 RMK AO1 T10931127






000
SXUS55 KMSO 210343
OSOMSO
MONTANA AWOS SUMMARY
NATIONAL WEATHER SERVICE MISSOULA MT
943 PM MDT THU NOV 20 2014

Montana AWOS Reports

LAUREL      |K6S8 210335Z AUTO 21007KT 40SM M01/M08 A2984 RMK AO1 T10051082
MALTA       |KM75 210335Z AUTO 00000KT 1/2SM M09/M13 A2973 RMK AO1 T10931127






000
SXUS55 KMSO 210333
OSOMSO
MONTANA AWOS SUMMARY
NATIONAL WEATHER SERVICE MISSOULA MT
933 PM MDT THU NOV 20 2014

Montana AWOS Reports

MALTA       |KM75 210255Z AUTO 00000KT 1/4SM M09/M13 A2974 RMK AO1 T10931127






000
SXUS55 KMSO 210323
OSOMSO
MONTANA AWOS SUMMARY
NATIONAL WEATHER SERVICE MISSOULA MT
923 PM MDT THU NOV 20 2014

Montana AWOS Reports

LAUREL      |K6S8 210315Z AUTO 21005KT 40SM 00/M08 A2984 RMK AO1 T00001077






000
SXUS55 KMSO 210304
OSOMSO
MONTANA AWOS SUMMARY
NATIONAL WEATHER SERVICE MISSOULA MT
903 PM MDT THU NOV 20 2014

Montana AWOS Reports

LAUREL      |K6S8 210255Z AUTO 21006KT 40SM 00/M08 A2984 RMK AO1 T00001082
PLAINS      |KS34 210255Z AUTO 00000KT 7SM M03/M07 A3001 RMK AO1 T10271071






000
SXUS55 KMSO 210253
OSOMSO
MONTANA AWOS SUMMARY
NATIONAL WEATHER SERVICE MISSOULA MT
853 PM MDT THU NOV 20 2014

Montana AWOS Reports

LAUREL      |K6S8 210235Z AUTO 20007KT 40SM 00/M08 A2984 RMK AO1 T00001077






000
SXUS55 KMSO 210223
OSOMSO
MONTANA AWOS SUMMARY
NATIONAL WEATHER SERVICE MISSOULA MT
822 PM MDT THU NOV 20 2014

Montana AWOS Reports

LAUREL      |K6S8 210215Z AUTO 20006KT 40SM 01/M08 A2984 RMK AO1 T00061077
MALTA       |KM75 210155Z AUTO 00000KT 7SM M08/M11 A2975 RMK AO1 T10821110






000
SXUS55 KMSO 210213
OSOMSO
MONTANA AWOS SUMMARY
NATIONAL WEATHER SERVICE MISSOULA MT
813 PM MDT THU NOV 20 2014

Montana AWOS Reports

PLAINS      |KS34 210155Z AUTO 00000KT 10SM M02/M07 A3002 RMK AO1 T10211071






000
SXUS55 KMSO 210203
OSOMSO
MONTANA AWOS SUMMARY
NATIONAL WEATHER SERVICE MISSOULA MT
803 PM MDT THU NOV 20 2014

Montana AWOS Reports

LAUREL      |K6S8 210155Z AUTO 21006KT 40SM 01/M07 A2985 RMK AO1 T00111071
SCOBEY      |K9S2 210155Z AUTO 00000KT 10SM M09/M14 A2974 RMK AO1 T10881143
TWIN BRIDGES|K7S1 210155Z AUTO 00000KT 40SM 04/M04 A2994 RMK AO1 T00391043






000
SXUS55 KMSO 210143
OSOMSO
MONTANA AWOS SUMMARY
NATIONAL WEATHER SERVICE MISSOULA MT
743 PM MDT THU NOV 20 2014

Montana AWOS Reports

LAUREL      |K6S8 210135Z AUTO 21004KT 40SM 01/M07 A2984 RMK AO1 T00111071






000
SXUS55 KMSO 210123
OSOMSO
MONTANA AWOS SUMMARY
NATIONAL WEATHER SERVICE MISSOULA MT
723 PM MDT THU NOV 20 2014

Montana AWOS Reports

LAUREL      |K6S8 210115Z AUTO 21007KT 40SM 02/M07 A2984 RMK AO1 T00171071






000
SXUS55 KMSO 210103
OSOMSO
MONTANA AWOS SUMMARY
NATIONAL WEATHER SERVICE MISSOULA MT
703 PM MDT THU NOV 20 2014

Montana AWOS Reports

PLAINS      |KS34 210055Z AUTO 00000KT 15SM M02/M07 A3002 RMK AO1 T10161071






000
SXUS55 KMSO 210053
OSOMSO
MONTANA AWOS SUMMARY
NATIONAL WEATHER SERVICE MISSOULA MT
653 PM MDT THU NOV 20 2014

Montana AWOS Reports

LAUREL      |K6S8 210035Z AUTO 20007KT 40SM 03/M07 A2985 RMK AO1 T00281071






000
SXUS55 KMSO 210023
OSOMSO
MONTANA AWOS SUMMARY
NATIONAL WEATHER SERVICE MISSOULA MT
623 PM MDT THU NOV 20 2014

Montana AWOS Reports

LAUREL      |K6S8 210015Z AUTO 19009KT 40SM 02/M08 A2985 RMK AO1 T00221077






000
SXUS55 KMSO 210003
OSOMSO
MONTANA AWOS SUMMARY
NATIONAL WEATHER SERVICE MISSOULA MT
603 PM MDT THU NOV 20 2014

Montana AWOS Reports

LAUREL      |K6S8 202355Z AUTO 20007KT 40SM 02/M07 A2985 RMK AO1 T00221071
SCOBEY      |K9S2 202355Z AUTO 00000KT 15SM M08/M13 A2978 RMK AO1 T10821132
PLAINS      |KS34 202355Z AUTO 00000KT 15SM M01/M07 A3002 RMK AO1 T10101071
TWIN BRIDGES|K7S1 202355Z AUTO 11005KT 40SM 04/M05 A2994 RMK AO1 T00441049
MALTA       |KM75 202355Z AUTO 00000KT 10SM M07/M10 A2978 RMK AO1 T10661099






000
SXUS55 KMSO 202344
OSOMSO
MONTANA AWOS SUMMARY
NATIONAL WEATHER SERVICE MISSOULA MT
543 PM MDT THU NOV 20 2014

Montana AWOS Reports

LAUREL      |K6S8 202335Z AUTO 00000KT 40SM 03/M07 A2985 RMK AO1 T00281071






000
SXUS55 KMSO 202323
OSOMSO
MONTANA AWOS SUMMARY
NATIONAL WEATHER SERVICE MISSOULA MT
523 PM MDT THU NOV 20 2014

Montana AWOS Reports

LAUREL      |K6S8 202315Z AUTO 20009G15KT 40SM 04/M07 A2985 RMK AO1 T00391071






000
SXUS55 KMSO 202313
OSOMSO
MONTANA AWOS SUMMARY
NATIONAL WEATHER SERVICE MISSOULA MT
513 PM MDT THU NOV 20 2014

Montana AWOS Reports

MALTA       |KM75 202255Z AUTO 00000KT 25SM M05/M08 A2978 RMK AO1 T10491082
PLAINS      |KS34 202255Z AUTO 00000KT 15SM M01/M07 A3002 RMK AO1 T10051066






000
SXUS55 KMSO 202303
OSOMSO
MONTANA AWOS SUMMARY
NATIONAL WEATHER SERVICE MISSOULA MT
503 PM MDT THU NOV 20 2014

Montana AWOS Reports

LAUREL      |K6S8 202255Z AUTO 18009G14KT 40SM 04/M07 A2985 RMK AO1 T00391071
SCOBEY      |K9S2 202255Z AUTO 00000KT 15SM M07/M12 A2980 RMK AO1 T10661116
TWIN BRIDGES|K7S1 202255Z AUTO 00000KT 40SM 04/M06 A2994 RMK AO1 T00441055






000
SXUS55 KMSO 202243
OSOMSO
MONTANA AWOS SUMMARY
NATIONAL WEATHER SERVICE MISSOULA MT
443 PM MDT THU NOV 20 2014

Montana AWOS Reports

LAUREL      |K6S8 202235Z AUTO 19011G16KT 40SM 05/M07 A2985 RMK AO1 T00501071






000
SXUS55 KMSO 202223
OSOMSO
MONTANA AWOS SUMMARY
NATIONAL WEATHER SERVICE MISSOULA MT
423 PM MDT THU NOV 20 2014

Montana AWOS Reports

LAUREL      |K6S8 202215Z AUTO 18007KT 40SM 06/M07 A2985 RMK AO1 T00611066






000
SXUS55 KMSO 202203
OSOMSO
MONTANA AWOS SUMMARY
NATIONAL WEATHER SERVICE MISSOULA MT
403 PM MDT THU NOV 20 2014

Montana AWOS Reports

LAUREL      |K6S8 202155Z AUTO 19009G18KT 40SM 06/M07 A2984 RMK AO1 T00611071
SCOBEY      |K9S2 202155Z AUTO 15006KT 15SM M07/M12 A2980 RMK AO1 T10661116
TWIN BRIDGES|K7S1 202155Z AUTO 00000KT 40SM 04/M06 A2994 RMK AO1 T00441060






000
SXUS55 KMSO 202143
OSOMSO
MONTANA AWOS SUMMARY
NATIONAL WEATHER SERVICE MISSOULA MT
343 PM MDT THU NOV 20 2014

Montana AWOS Reports

LAUREL      |K6S8 202135Z AUTO 19008KT 40SM 07/M06 A2984 RMK AO1 T00671060






000
SXUS55 KMSO 202123
OSOMSO
MONTANA AWOS SUMMARY
NATIONAL WEATHER SERVICE MISSOULA MT
323 PM MDT THU NOV 20 2014

Montana AWOS Reports

LAUREL      |K6S8 202115Z AUTO 21006KT 40SM 06/M06 A2984 RMK AO1 T00611060






000
SXUS55 KMSO 202113
OSOMSO
MONTANA AWOS SUMMARY
NATIONAL WEATHER SERVICE MISSOULA MT
313 PM MDT THU NOV 20 2014

Montana AWOS Reports

SCOBEY      |K9S2 202055Z AUTO 15005KT 15SM M07/M12 A2981 RMK AO1 T10661116
MALTA       |KM75 202055Z AUTO 15005KT 25SM M06/M09 A2979 RMK AO1 T10551088






000
SXUS55 KMSO 202103
OSOMSO
MONTANA AWOS SUMMARY
NATIONAL WEATHER SERVICE MISSOULA MT
303 PM MDT THU NOV 20 2014

Montana AWOS Reports

LAUREL      |K6S8 202055Z AUTO 21007KT 40SM 06/M07 A2984 RMK AO1 T00611066
TWIN BRIDGES|K7S1 202055Z AUTO 16005KT 40SM 05/M07 A2994 RMK AO1 T00501066






000
SXUS55 KMSO 202044
OSOMSO
MONTANA AWOS SUMMARY
NATIONAL WEATHER SERVICE MISSOULA MT
243 PM MDT THU NOV 20 2014

Montana AWOS Reports

LAUREL      |K6S8 202035Z AUTO 20004KT 40SM 06/M07 A2985 RMK AO1 T00561066






000
SXUS55 KMSO 202023
OSOMSO
MONTANA AWOS SUMMARY
NATIONAL WEATHER SERVICE MISSOULA MT
223 PM MDT THU NOV 20 2014

Montana AWOS Reports

LAUREL      |K6S8 202015Z AUTO 21006KT 40SM 06/M06 A2985 RMK AO1 T00561060






000
SXUS55 KMSO 202003
OSOMSO
MONTANA AWOS SUMMARY
NATIONAL WEATHER SERVICE MISSOULA MT
203 PM MDT THU NOV 20 2014

Montana AWOS Reports

LAUREL      |K6S8 201955Z AUTO 20006KT 40SM 06/M06 A2985 RMK AO1 T00561060
SCOBEY      |K9S2 201955Z AUTO 17004KT 15SM M07/M12 A2983 RMK AO1 T10661116
PLAINS      |KS34 201955Z AUTO 00000KT 15SM M02/M07 A3005 RMK AO1 T10161071
TWIN BRIDGES|K7S1 201955Z AUTO 19006KT 40SM 04/M07 A2995 RMK AO1 T00391066






000
SXUS55 KMSO 201953
OSOMSO
MONTANA AWOS SUMMARY
NATIONAL WEATHER SERVICE MISSOULA MT
153 PM MDT THU NOV 20 2014

Montana AWOS Reports

LAUREL      |K6S8 201935Z AUTO 00000KT 40SM 05/M06 A2986 RMK AO1 T00501060






000
SXUS55 KMSO 201923
OSOMSO
MONTANA AWOS SUMMARY
NATIONAL WEATHER SERVICE MISSOULA MT
123 PM MDT THU NOV 20 2014

Montana AWOS Reports

LAUREL      |K6S8 201915Z AUTO 19007KT 40SM 04/M07 A2986 RMK AO1 T00391071






000
SXUS55 KMSO 201913
OSOMSO
MONTANA AWOS SUMMARY
NATIONAL WEATHER SERVICE MISSOULA MT
113 PM MDT THU NOV 20 2014

Montana AWOS Reports

PLAINS      |KS34 201855Z AUTO 00000KT 10SM M03/M08 A3006 RMK AO1 T10271077
TWIN BRIDGES|K7S1 201855Z AUTO 00000KT 40SM 04/M07 A2997 RMK AO1 T00391066
SCOBEY      |K9S2 201855Z AUTO 00000KT 10SM M08/M13 A2985 RMK AO1 T10771127
MALTA       |KM75 201855Z AUTO 00000KT 40SM M04/M09 A2983 RMK AO1 T10431088






    US Dept of Commerce
    National Oceanic and Atmospheric Administration
    National Weather Service
    1325 East West Highway
    Silver Spring, MD 20910
    Page Author: NWS Internet Services Team
Disclaimer
Information Quality
Credits
Glossary
Privacy Policy
Freedom of Information Act (FOIA)
About Us
Career Opportunities